BA83 / G-YMMI 7700 Squawk Report (22nd of October, 2020)

Aircraft B772 Reg No. G-YMMI Age 20 years old
Model 777 Jet engines 2 First flight 24-10-00
Registered 02-11-00 Rollout 08-10-00 Delivered 02-11-00
Construction No. 30310 Line No. 0308 Series 236(ER)
ADSHEX 4007F4 Airline name British Airways Owner N/A
Airfield based Heathrow~Gtr London~G First tracked N/A

Flight history for G-YMMI

Route Flight No Date Playback
Heathrow (LHR) - Nnamdi Azikiwe International (ABV) BA83 2020-11-30 04:05:00
Nnamdi Azikiwe International (ABV) - Heathrow (LHR) BA82 2020-11-27 18:13:00
Heathrow (LHR) - Nnamdi Azikiwe International (ABV) BA83 2020-11-26 04:16:00
Schiphol (AMS) - Heathrow (LHR) N/A 2020-11-24 07:46:00
Heathrow (LHR) - Schiphol (AMS) BA442 2020-11-23 19:03:00
Incheon International (ICN) - Heathrow (LHR) BA18 2020-11-23 13:27:00
Heathrow (LHR) - Incheon International (ICN) N/A 2020-11-22 02:08:00
Nnamdi Azikiwe International (ABV) - Heathrow (LHR) BA82 2020-11-20 14:33:00
Heathrow (LHR) - Nnamdi Azikiwe International (ABV) BA83 2020-11-19 04:01:00
Nnamdi Azikiwe International (ABV) - Heathrow (LHR) BA82 2020-11-17 14:35:00
Heathrow (LHR) - Nnamdi Azikiwe International (ABV) BA83 2020-11-16 03:59:00
Nnamdi Azikiwe International (ABV) - Heathrow (LHR) BA82 2020-11-11 18:41:00
Heathrow (LHR) - Nnamdi Azikiwe International (ABV) BA83 2020-11-11 11:52:00
Nnamdi Azikiwe International (ABV) - Heathrow (LHR) BA82 2020-11-09 21:46:00
Heathrow (LHR) - Nnamdi Azikiwe International (ABV) BA83 2020-11-09 12:07:00
Nnamdi Azikiwe International (ABV) - Heathrow (LHR) BA82 2020-11-09 00:12:00
Heathrow (LHR) - Nnamdi Azikiwe International (ABV) BA83 2020-11-08 12:00:00
Nnamdi Azikiwe International (ABV) - Heathrow (LHR) BA82 2020-11-07 22:21:00
Heathrow (LHR) - Nnamdi Azikiwe International (ABV) BA83 2020-11-07 11:57:00
Nnamdi Azikiwe International (ABV) - Heathrow (LHR) BA82 2020-11-06 14:34:00
Time Lat Lon Altitude Heading Speed Vertical Rate
2020-10-22 22:43:46 GMT 51.473160 -0.482121 0 90 0 0
2020-10-22 22:43:27 GMT 51.473156 -0.482118 0 90 0 0
2020-10-22 22:43:15 GMT 51.473148 -0.482235 0 90 2 0
2020-10-22 22:43:06 GMT 51.473160 -0.482388 0 90 3 0
2020-10-22 22:42:54 GMT 51.473156 -0.482638 0 90 3 0
2020-10-22 22:42:46 GMT 51.473156 -0.482916 0 92 6 0
2020-10-22 22:42:34 GMT 51.473160 -0.483456 0 157 7 0
2020-10-22 22:42:25 GMT 51.473385 -0.483584 0 180 7 0
2020-10-22 22:42:16 GMT 51.473717 -0.483589 0 180 8 0
2020-10-22 22:42:03 GMT 51.474216 -0.483589 0 182 8 0
2020-10-22 22:41:55 GMT 51.474476 -0.483608 0 194 7 0
2020-10-22 22:41:50 GMT 51.474621 -0.483584 0 216 7 0
2020-10-22 22:41:46 GMT 51.474747 -0.483528 0 239 7 0
2020-10-22 22:41:41 GMT 51.474850 -0.483361 0 258 8 0
2020-10-22 22:41:35 GMT 51.474895 -0.483046 0 270 9 0
2020-10-22 22:41:25 GMT 51.474880 -0.482407 0 267 9 0
2020-10-22 22:41:20 GMT 51.474869 -0.482101 0 258 8 0
2020-10-22 22:41:15 GMT 51.474903 -0.481815 0 244 8 0
2020-10-22 22:41:11 GMT 51.474930 -0.481598 0 227 8 0
2020-10-22 22:41:05 GMT 51.475033 -0.481339 0 199 8 0
2020-10-22 22:41:00 GMT 51.475208 -0.481205 0 177 10 0
2020-10-22 22:40:55 GMT 51.475441 -0.481205 0 168 12 0
2020-10-22 22:40:50 GMT 51.475731 -0.481339 0 165 12 0
2020-10-22 22:40:45 GMT 51.475975 -0.481434 0 171 13 0
2020-10-22 22:40:36 GMT 51.476452 -0.481506 0 180 12 0
2020-10-22 22:40:32 GMT 51.476662 -0.481510 0 180 12 0
2020-10-22 22:40:25 GMT 51.477047 -0.481524 0 194 12 0
2020-10-22 22:40:15 GMT 51.477470 -0.481227 0 267 11 0
2020-10-22 22:40:04 GMT 51.477524 -0.480385 0 270 14 0
2020-10-22 22:39:54 GMT 51.477535 -0.479050 0 270 24 0
2020-10-22 22:39:45 GMT 51.477539 -0.477144 0 270 33 0
2020-10-22 22:39:34 GMT 51.477551 -0.474175 0 270 42 0
2020-10-22 22:39:24 GMT 51.477570 -0.470905 0 270 47 0
2020-10-22 22:39:14 GMT 51.477573 -0.467383 0 270 54 0
2020-10-22 22:39:04 GMT 51.477592 -0.463200 0 270 62 0
2020-10-22 22:38:58 GMT 51.477608 -0.459960 0 270 70 0
2020-10-22 22:38:54 GMT 51.477619 -0.457751 0 270 78 0
2020-10-22 22:38:51 GMT 51.477608 -0.456211 150 270 82 0
2020-10-22 22:38:44 GMT 51.477631 -0.451256 150 270 106 -64
2020-10-22 22:38:40 GMT 51.477650 -0.447998 125 270 114 -192
2020-10-22 22:38:37 GMT 51.477631 -0.445466 100 270 141 -320
2020-10-22 22:38:31 GMT 51.477676 -0.439899 100 270 141 -320
2020-10-22 22:38:27 GMT 51.477695 -0.435333 175 270 140 -704
2020-10-22 22:38:21 GMT 51.477676 -0.429135 250 271 140 -768
2020-10-22 22:38:17 GMT 51.477676 -0.421489 325 270 140 -704
2020-10-22 22:38:13 GMT 51.477676 -0.421489 350 270 140 -768
2020-10-22 22:38:10 GMT 51.477650 -0.416946 400 270 138 -768
2020-10-22 22:38:06 GMT 51.477695 -0.414352 450 269 137 -768
2020-10-22 22:38:03 GMT 51.477745 -0.411072 475 269 137 -768
2020-10-22 22:38:00 GMT 51.477768 -0.408276 575 270 136 -768
2020-10-22 22:37:57 GMT 51.477768 -0.404193 575 270 136 -704
2020-10-22 22:37:53 GMT 51.477791 -0.401077 625 270 134 -704
2020-10-22 22:37:49 GMT 51.477837 -0.396194 675 270 134 -704
2020-10-22 22:37:46 GMT 51.477837 -0.393829 700 270 133 -704
2020-10-22 22:37:42 GMT 51.477837 -0.389328 725 270 132 -640
2020-10-22 22:37:39 GMT 51.477837 -0.387039 775 270 131 -640
2020-10-22 22:37:36 GMT 51.477859 -0.384002 800 270 131 -640
2020-10-22 22:37:32 GMT 51.477882 -0.380249 825 270 131 -704
2020-10-22 22:37:29 GMT 51.477859 -0.374352 900 270 130 -704
2020-10-22 22:37:23 GMT 51.477882 -0.371246 950 270 129 -704
2020-10-22 22:37:20 GMT 51.477905 -0.368859 1,025 270 129 -640
2020-10-22 22:37:17 GMT 51.477905 -0.365221 1,050 270 129 -640
2020-10-22 22:37:11 GMT 51.477951 -0.357056 1,100 270 128 -640
2020-10-22 22:37:08 GMT 51.477951 -0.357056 1,125 270 128 -640
2020-10-22 22:37:05 GMT 51.477951 -0.354086 1,175 270 129 -640
2020-10-22 22:37:02 GMT 51.477928 -0.351486 1,175 270 129 -640
2020-10-22 22:36:59 GMT 51.477951 -0.348296 1,225 270 129 -640
2020-10-22 22:36:56 GMT 51.477951 -0.343026 1,275 270 129 -704
2020-10-22 22:36:50 GMT 51.477978 -0.339890 1,325 270 129 -704
2020-10-22 22:36:47 GMT 51.477997 -0.334415 1,375 270 129 -704
2020-10-22 22:36:44 GMT 51.477997 -0.334415 1,400 270 129 -704
2020-10-22 22:36:41 GMT 51.477978 -0.331345 1,425 270 130 -704
2020-10-22 22:36:38 GMT 51.478024 -0.328293 1,450 270 130 -704
2020-10-22 22:36:33 GMT 51.477997 -0.323577 1,525 270 134 -832
2020-10-22 22:36:30 GMT 51.478024 -0.316620 1,600 270 140 -704
2020-10-22 22:36:27 GMT 51.478024 -0.316620 1,625 270 141 -640
2020-10-22 22:36:24 GMT 51.478024 -0.314713 1,650 270 143 -576
2020-10-22 22:36:21 GMT 51.478024 -0.310440 1,800 270 152 -768
2020-10-22 22:36:18 GMT 51.478024 -0.308380 2,200 270 149 -832
2020-10-22 22:36:15 GMT 51.478043 -0.304722 1,725 270 149 -832
2020-10-22 22:36:12 GMT 51.478043 -0.301827 1,775 270 153 -768
2020-10-22 22:36:09 GMT 51.478043 -0.297299 1,850 270 159 -960
2020-10-22 22:36:06 GMT 51.478069 -0.294342 2,100 270 165 -832
2020-10-22 22:36:03 GMT 51.478043 -0.290915 1,925 270 165 -832
2020-10-22 22:36:00 GMT 51.478069 -0.287170 1,950 270 165 -896
2020-10-22 22:35:57 GMT 51.478069 -0.283508 2,025 270 166 -896
2020-10-22 22:35:54 GMT 51.478069 -0.279846 2,025 270 166 -896
2020-10-22 22:35:51 GMT 51.478069 -0.276108 2,150 270 165 -896
2020-10-22 22:35:47 GMT 51.478088 -0.270872 2,150 270 165 -896
2020-10-22 22:35:44 GMT 51.478069 -0.267334 2,225 270 165 -896
2020-10-22 22:35:41 GMT 51.478088 -0.264043 2,225 270 166 -896
2020-10-22 22:35:38 GMT 51.478069 -0.256424 2,300 270 167 -960
2020-10-22 22:35:35 GMT 51.478043 -0.252166 2,375 271 167 -960
2020-10-22 22:35:32 GMT 51.478043 -0.252166 2,400 271 167 -960
2020-10-22 22:35:29 GMT 51.478043 -0.249048 2,450 271 167 -960
2020-10-22 22:35:26 GMT 51.478043 -0.244668 2,475 271 167 -896
2020-10-22 22:35:23 GMT 51.477997 -0.240066 2,525 272 166 -576
2020-10-22 22:35:20 GMT 51.477928 -0.236435 2,575 272 166 -448
2020-10-22 22:35:17 GMT 51.477905 -0.233385 2,575 271 165 -192
2020-10-22 22:35:14 GMT 51.477905 -0.230564 2,575 271 165 0
2020-10-22 22:35:11 GMT 51.477882 -0.226212 2,575 270 165 0
2020-10-22 22:35:08 GMT 51.477928 -0.222321 2,575 269 166 0
2020-10-22 22:35:05 GMT 51.477951 -0.219875 2,575 269 167 0
2020-10-22 22:35:02 GMT 51.478088 -0.212081 2,575 269 166 -64
2020-10-22 22:34:59 GMT 51.478088 -0.212081 2,575 269 165 -128
2020-10-22 22:34:56 GMT 51.478115 -0.204544 2,600 279 167 -512
2020-10-22 22:34:53 GMT 51.478115 -0.204544 2,600 272 166 -448
2020-10-22 22:34:50 GMT 51.478024 -0.200958 2,625 275 167 -512
2020-10-22 22:34:47 GMT 51.477859 -0.197531 2,800 276 167 -512
2020-10-22 22:34:44 GMT 51.477467 -0.193100 2,700 284 168 -512
2020-10-22 22:34:41 GMT 51.476166 -0.185877 2,725 290 169 -512
2020-10-22 22:34:38 GMT 51.476166 -0.185877 2,750 296 171 -512
2020-10-22 22:34:35 GMT 51.475277 -0.182648 2,750 297 171 -512
2020-10-22 22:34:32 GMT 51.474018 -0.178986 2,775 300 172 -512
2020-10-22 22:34:29 GMT 51.472950 -0.176010 2,800 300 172 -512
2020-10-22 22:34:26 GMT 51.471741 -0.172653 2,825 300 172 -512
2020-10-22 22:34:23 GMT 51.470444 -0.169026 2,850 300 172 -576
2020-10-22 22:34:20 GMT 51.469482 -0.166280 2,875 300 172 -576
2020-10-22 22:34:17 GMT 51.468292 -0.162888 2,900 300 173 -576
2020-10-22 22:34:14 GMT 51.466476 -0.157776 2,950 299 173 -576
2020-10-22 22:34:11 GMT 51.465874 -0.156021 2,975 299 173 -512
2020-10-22 22:34:08 GMT 51.464905 -0.153141 3,000 300 172 -512
2020-10-22 22:34:05 GMT 51.463486 -0.149132 3,050 300 172 -448
2020-10-22 22:34:02 GMT 51.462524 -0.146385 3,075 300 171 -448
2020-10-22 22:33:59 GMT 51.461197 -0.142896 3,100 305 171 -64
2020-10-22 22:33:56 GMT 51.459728 -0.139236 3,100 304 172 -128
2020-10-22 22:33:53 GMT 51.458542 -0.136513 3,100 306 172 0
2020-10-22 22:33:50 GMT 51.456982 -0.133591 3,100 318 176 0
2020-10-22 22:33:47 GMT 51.454697 -0.130203 3,100 323 179 0
2020-10-22 22:33:44 GMT 51.453461 -0.128867 3,100 342 189 0
2020-10-22 22:33:41 GMT 51.450512 -0.126343 3,100 339 186 0
2020-10-22 22:33:38 GMT 51.448608 -0.125304 3,075 342 189 0
2020-10-22 22:33:35 GMT 51.445854 -0.124207 3,075 357 202 64
2020-10-22 22:33:32 GMT 51.441013 -0.123672 3,075 0 206 128
2020-10-22 22:33:26 GMT 51.437576 -0.123893 3,075 4 213 -64
2020-10-22 22:33:23 GMT 51.434143 -0.124339 3,075 4 215 -128
2020-10-22 22:33:20 GMT 51.431030 -0.124710 3,100 4 216 -192
2020-10-22 22:33:16 GMT 51.427094 -0.125198 3,125 4 215 -384
2020-10-22 22:33:13 GMT 51.424530 -0.125526 3,125 4 215 -512
2020-10-22 22:33:10 GMT 51.421005 -0.125972 3,150 4 216 -640
2020-10-22 22:33:07 GMT 51.415737 -0.126572 3,300 4 215 -1152
2020-10-22 22:33:04 GMT 51.412571 -0.126953 3,300 4 215 -1408
2020-10-22 22:33:01 GMT 51.412571 -0.126953 3,500 4 217 -1600
2020-10-22 22:32:58 GMT 51.405495 -0.127869 3,425 4 217 -1600
2020-10-22 22:32:55 GMT 51.405495 -0.127869 3,500 4 217 -1600
2020-10-22 22:32:52 GMT 51.403656 -0.128124 3,525 4 217 -1600
2020-10-22 22:32:49 GMT 51.401138 -0.128495 3,625 4 219 -1536
2020-10-22 22:32:46 GMT 51.394230 -0.129395 3,750 4 222 -1408
2020-10-22 22:32:43 GMT 51.394230 -0.129395 3,775 4 223 -1344
2020-10-22 22:32:40 GMT 51.390411 -0.129852 3,900 4 227 -1280
2020-10-22 22:32:34 GMT 51.384964 -0.130539 4,000 4 230 -1280
2020-10-22 22:32:31 GMT 51.378029 -0.131454 4,050 4 232 -1280
2020-10-22 22:32:28 GMT 51.378029 -0.131454 4,100 4 234 -1216
2020-10-22 22:32:25 GMT 51.375412 -0.131762 4,150 4 236 -1152
2020-10-22 22:32:22 GMT 51.372162 -0.132133 4,200 4 239 -1088
2020-10-22 22:32:19 GMT 51.369003 -0.132578 4,400 4 245 -1088
2020-10-22 22:32:16 GMT 51.365250 -0.133024 4,350 4 243 -1152
2020-10-22 22:32:13 GMT 51.361874 -0.133438 4,375 4 244 -1152
2020-10-22 22:32:10 GMT 51.358196 -0.133896 4,425 4 246 -1088
2020-10-22 22:32:07 GMT 51.355042 -0.134286 4,500 4 250 -896
2020-10-22 22:32:04 GMT 51.351357 -0.134735 4,550 4 251 -896
2020-10-22 22:32:01 GMT 51.348328 -0.135117 4,650 4 253 -832
2020-10-22 22:31:58 GMT 51.344284 -0.135622 4,625 4 256 -832
2020-10-22 22:31:55 GMT 51.340462 -0.136032 4,675 4 261 -768
2020-10-22 22:31:52 GMT 51.337601 -0.136438 4,700 4 258 -832
2020-10-22 22:31:49 GMT 51.333992 -0.136795 4,900 4 264 -704
2020-10-22 22:31:46 GMT 51.329636 -0.137329 4,800 4 264 -704
2020-10-22 22:31:43 GMT 51.327118 -0.137626 4,825 4 267 -704
2020-10-22 22:31:40 GMT 51.323517 -0.138016 4,875 4 270 -704
2020-10-22 22:31:37 GMT 51.319382 -0.138517 4,900 4 271 -768
2020-10-22 22:31:34 GMT 51.315788 -0.138931 4,925 4 273 -896
2020-10-22 22:31:31 GMT 51.312019 -0.139389 4,950 4 275 -1088
2020-10-22 22:31:28 GMT 51.308121 -0.139927 5,175 5 280 -1600
2020-10-22 22:31:25 GMT 51.304001 -0.140521 5,125 5 280 -1600
2020-10-22 22:31:22 GMT 51.299400 -0.141220 5,200 6 283 -1728
2020-10-22 22:31:19 GMT 51.296173 -0.141857 5,275 7 288 -1856
2020-10-22 22:31:16 GMT 51.288651 -0.143890 5,425 10 293 -1856
2020-10-22 22:31:13 GMT 51.284225 -0.145493 5,500 13 297 -1792
2020-10-22 22:31:10 GMT 51.284225 -0.145493 5,625 17 303 -1472
2020-10-22 22:31:07 GMT 51.279991 -0.147476 5,650 17 305 -1344
2020-10-22 22:31:04 GMT 51.276173 -0.149384 5,675 18 307 -1216
2020-10-22 22:31:01 GMT 51.267979 -0.153809 5,825 18 314 -1088
2020-10-22 22:30:58 GMT 51.263744 -0.156021 5,850 18 315 -1088
2020-10-22 22:30:55 GMT 51.263744 -0.156021 5,875 18 320 -1024
2020-10-22 22:30:52 GMT 51.254524 -0.160828 5,950 18 321 -1024
2020-10-22 22:30:49 GMT 51.254524 -0.160828 5,975 17 323 -1024
2020-10-22 22:30:46 GMT 51.251724 -0.162271 6,050 17 330 -896
2020-10-22 22:30:43 GMT 51.247124 -0.164642 6,150 17 333 -832
2020-10-22 22:30:40 GMT 51.242889 -0.166799 6,100 17 332 -832
2020-10-22 22:30:37 GMT 51.237396 -0.169678 6,125 17 333 -832
2020-10-22 22:30:34 GMT 51.232819 -0.171995 6,250 17 337 -896
2020-10-22 22:30:31 GMT 51.229111 -0.173851 6,250 17 337 -896
2020-10-22 22:30:28 GMT 51.224533 -0.176227 6,375 17 340 -832
2020-10-22 22:30:25 GMT 51.215374 -0.180893 6,375 17 341 -832
2020-10-22 22:30:22 GMT 51.215374 -0.180893 6,475 17 347 -704
2020-10-22 22:30:19 GMT 51.210754 -0.183279 6,425 17 345 -768
2020-10-22 22:30:16 GMT 51.206951 -0.185165 6,500 17 345 -704
2020-10-22 22:30:13 GMT 51.201130 -0.188141 6,500 17 349 -704
2020-10-22 22:30:10 GMT 51.192947 -0.192261 6,525 17 351 -768
2020-10-22 22:30:04 GMT 51.188644 -0.194413 6,600 17 355 -960
2020-10-22 22:30:01 GMT 51.183861 -0.196838 6,675 17 358 -1408
2020-10-22 22:29:58 GMT 51.178085 -0.199738 6,750 17 358 -1664
2020-10-22 22:29:55 GMT 51.174084 -0.201721 6,800 17 359 -1792
2020-10-22 22:29:52 GMT 51.169334 -0.204086 6,950 17 360 -1792
2020-10-22 22:29:49 GMT 51.164886 -0.206365 7,000 17 360 -1792
2020-10-22 22:29:46 GMT 51.159794 -0.208893 7,075 17 361 -1792
2020-10-22 22:29:43 GMT 51.155136 -0.211190 7,200 17 362 -1600
2020-10-22 22:29:40 GMT 51.145966 -0.215759 7,275 17 363 -1408
2020-10-22 22:29:37 GMT 51.139206 -0.219133 7,350 17 364 -1408
2020-10-22 22:29:34 GMT 51.139206 -0.219133 7,450 17 364 -1280
2020-10-22 22:29:31 GMT 51.134888 -0.221252 7,450 17 364 -1280
2020-10-22 22:29:28 GMT 51.130600 -0.223364 7,500 17 364 -1280
2020-10-22 22:29:25 GMT 51.126526 -0.225368 7,650 17 365 -1216
2020-10-22 22:29:22 GMT 51.118561 -0.229228 7,625 17 365 -1152
2020-10-22 22:29:19 GMT 51.116180 -0.230416 7,775 17 365 -1088
2020-10-22 22:29:16 GMT 51.111099 -0.232925 7,775 17 365 -960
2020-10-22 22:29:13 GMT 51.105560 -0.235672 7,800 17 365 -896
2020-10-22 22:29:10 GMT 51.101852 -0.237468 7,825 17 365 -896
2020-10-22 22:29:07 GMT 51.097183 -0.239843 7,900 17 366 -896
2020-10-22 22:29:04 GMT 51.087914 -0.244446 7,950 17 366 -704
2020-10-22 22:28:58 GMT 51.077545 -0.249568 8,000 17 367 -192
2020-10-22 22:28:55 GMT 51.077545 -0.249568 8,000 17 367 0
2020-10-22 22:28:52 GMT 51.071949 -0.252304 8,000 17 368 0
2020-10-22 22:28:49 GMT 51.068390 -0.254022 8,000 17 368 0
2020-10-22 22:28:46 GMT 51.062592 -0.256882 8,000 17 368 64
2020-10-22 22:28:43 GMT 51.057907 -0.259218 8,000 17 368 64
2020-10-22 22:28:40 GMT 51.047104 -0.264488 8,000 17 367 64
2020-10-22 22:28:37 GMT 51.047104 -0.264488 8,000 17 367 64
2020-10-22 22:28:34 GMT 51.043716 -0.266122 8,000 17 367 64
2020-10-22 22:28:31 GMT 51.037949 -0.268942 8,000 17 367 64
2020-10-22 22:28:28 GMT 51.033730 -0.270996 8,000 17 367 64
2020-10-22 22:28:25 GMT 51.028702 -0.273438 8,000 17 366 0
2020-10-22 22:28:22 GMT 51.018906 -0.278221 8,000 17 366 -64
2020-10-22 22:28:19 GMT 51.018906 -0.278221 8,000 16 367 -704
2020-10-22 22:28:16 GMT 51.014603 -0.280300 8,000 17 368 -448
2020-10-22 22:28:13 GMT 51.004913 -0.285034 8,050 16 367 -576
2020-10-22 22:28:07 GMT 51.000046 -0.287352 8,100 16 367 -832
2020-10-22 22:28:04 GMT 50.995090 -0.289764 8,150 17 370 -1984
2020-10-22 22:28:01 GMT 50.990017 -0.292206 8,175 16 367 -1344
2020-10-22 22:27:58 GMT 50.985077 -0.294552 8,225 16 367 -1600
2020-10-22 22:27:55 GMT 50.978897 -0.297522 8,275 16 368 -1664
2020-10-22 22:27:52 GMT 50.974888 -0.299530 8,475 17 369 -2048
2020-10-22 22:27:49 GMT 50.970749 -0.301530 8,600 17 369 -2048
2020-10-22 22:27:46 GMT 50.965248 -0.304260 8,600 17 370 -1984
2020-10-22 22:27:43 GMT 50.960548 -0.306625 8,725 17 370 -1856
2020-10-22 22:27:40 GMT 50.950493 -0.311584 8,850 17 371 -1472
2020-10-22 22:27:37 GMT 50.946396 -0.313556 8,925 16 374 -1152
2020-10-22 22:27:34 GMT 50.946396 -0.313556 8,950 16 375 -960
2020-10-22 22:27:31 GMT 50.940998 -0.316162 9,000 16 376 -832
2020-10-22 22:27:28 GMT 50.935783 -0.318604 9,025 16 376 -576
2020-10-22 22:27:25 GMT 50.929173 -0.321579 9,075 15 377 -768
2020-10-22 22:27:22 GMT 50.925568 -0.323057 9,100 14 377 -1024
2020-10-22 22:27:19 GMT 50.919754 -0.325359 9,175 13 375 -1408
2020-10-22 22:27:16 GMT 50.914413 -0.327301 9,275 11 376 -1792
2020-10-22 22:27:13 GMT 50.910133 -0.328674 9,325 10 376 -1856
2020-10-22 22:27:10 GMT 50.905758 -0.329971 9,400 10 376 -1984
2020-10-22 22:27:07 GMT 50.900482 -0.331446 9,525 10 377 -1920
2020-10-22 22:27:04 GMT 50.894394 -0.333227 9,600 10 377 -1856
2020-10-22 22:27:01 GMT 50.889313 -0.334638 9,700 10 377 -1856
2020-10-22 22:26:58 GMT 50.884995 -0.335846 9,775 10 377 -1792
2020-10-22 22:26:55 GMT 50.878647 -0.337681 9,850 10 378 -1792
2020-10-22 22:26:52 GMT 50.875122 -0.338646 10,000 10 379 -1792
2020-10-22 22:26:49 GMT 50.868393 -0.340576 10,075 10 381 -1792
2020-10-22 22:26:46 GMT 50.863579 -0.341949 10,150 10 381 -1856
2020-10-22 22:26:43 GMT 50.858734 -0.343323 10,250 10 382 -1856
2020-10-22 22:26:40 GMT 50.847660 -0.346451 10,400 10 383 -1856
2020-10-22 22:26:37 GMT 50.847660 -0.346451 10,450 10 383 -1792
2020-10-22 22:26:33 GMT 50.841793 -0.348129 10,600 10 385 -1728
2020-10-22 22:26:30 GMT 50.835159 -0.350078 10,675 10 385 -1728
2020-10-22 22:26:27 GMT 50.825546 -0.352824 10,850 10 388 -1600
2020-10-22 22:26:24 GMT 50.825546 -0.352824 10,825 10 387 -1600
2020-10-22 22:26:21 GMT 50.821499 -0.354004 10,950 10 389 -1472
2020-10-22 22:26:18 GMT 50.814835 -0.355868 11,225 10 394 -1408
2020-10-22 22:26:15 GMT 50.809433 -0.357427 11,050 10 391 -1408
2020-10-22 22:26:12 GMT 50.804306 -0.358911 11,100 10 393 -1408
2020-10-22 22:26:09 GMT 50.799061 -0.360413 11,175 10 393 -1408
2020-10-22 22:26:06 GMT 50.794498 -0.361710 11,375 10 396 -1600
2020-10-22 22:26:03 GMT 50.788376 -0.363440 11,375 10 397 -1728
2020-10-22 22:26:00 GMT 50.782021 -0.365295 11,450 10 397 -1920
2020-10-22 22:25:57 GMT 50.777618 -0.366557 11,575 10 397 -2240
2020-10-22 22:25:54 GMT 50.772430 -0.368042 11,650 10 398 -2496
2020-10-22 22:25:51 GMT 50.764984 -0.370120 11,750 10 398 -2880
2020-10-22 22:25:48 GMT 50.760422 -0.371399 12,125 10 401 -4800
2020-10-22 22:25:45 GMT 50.748917 -0.374649 12,275 10 395 -4480
2020-10-22 22:25:42 GMT 50.748917 -0.374649 12,425 10 395 -4736
2020-10-22 22:25:39 GMT 50.743942 -0.376053 12,525 10 396 -4864
2020-10-22 22:25:36 GMT 50.738400 -0.377655 12,900 10 397 -4928
2020-10-22 22:25:32 GMT 50.731838 -0.379562 16,100 9 415 -5056
2020-10-22 22:25:29 GMT 50.727135 -0.380936 13,850 10 399 -4992
2020-10-22 22:25:26 GMT 50.721451 -0.382591 13,675 10 400 -4928
2020-10-22 22:25:23 GMT 50.714287 -0.384598 13,825 10 400 -4864
2020-10-22 22:25:20 GMT 50.705860 -0.387039 14,350 10 403 -4800
2020-10-22 22:25:14 GMT 50.699112 -0.388947 14,650 9 404 -4864
2020-10-22 22:25:11 GMT 50.694077 -0.390312 15,100 9 406 -4928
2020-10-22 22:25:08 GMT 50.688538 -0.391870 15,875 9 407 -4864
2020-10-22 22:25:05 GMT 50.683098 -0.393372 15,300 9 407 -4864
2020-10-22 22:25:02 GMT 50.677605 -0.394897 15,500 9 408 -4800
2020-10-22 22:24:59 GMT 50.671738 -0.396500 15,950 9 411 -4608
2020-10-22 22:24:56 GMT 50.666382 -0.397965 16,100 9 411 -4608
2020-10-22 22:24:53 GMT 50.660751 -0.399442 16,250 9 412 -4672
2020-10-22 22:24:50 GMT 50.654003 -0.401298 16,500 9 415 -5056
2020-10-22 22:24:47 GMT 50.642853 -0.404398 16,875 10 416 -5184
2020-10-22 22:24:44 GMT 50.642853 -0.404398 17,075 10 416 -5184
2020-10-22 22:24:41 GMT 50.638184 -0.405699 17,400 10 417 -5120
2020-10-22 22:24:38 GMT 50.632496 -0.407385 17,600 10 418 -5056
2020-10-22 22:24:35 GMT 50.626209 -0.409166 17,725 10 418 -4928
2020-10-22 22:24:32 GMT 50.613689 -0.412730 18,250 10 422 -4352
2020-10-22 22:24:29 GMT 50.613689 -0.412730 18,425 9 424 -4096
2020-10-22 22:24:26 GMT 50.609802 -0.413794 18,500 9 424 -4032
2020-10-22 22:24:23 GMT 50.599907 -0.416367 18,825 9 429 -3456
2020-10-22 22:24:20 GMT 50.596802 -0.417119 18,900 8 431 -3392
2020-10-22 22:24:17 GMT 50.592133 -0.418297 19,000 8 434 -3072
2020-10-22 22:24:14 GMT 50.585106 -0.419930 19,200 8 439 -2752
2020-10-22 22:24:11 GMT 50.578262 -0.421456 19,275 7 443 -2624
2020-10-22 22:24:08 GMT 50.572582 -0.422602 19,450 7 449 -2304
2020-10-22 22:24:05 GMT 50.568485 -0.423419 19,500 6 453 -2304
2020-10-22 22:24:02 GMT 50.560852 -0.424829 19,650 6 458 -2496
2020-10-22 22:23:59 GMT 50.555637 -0.425794 19,750 5 462 -2816
2020-10-22 22:23:56 GMT 50.548141 -0.426982 19,925 5 464 -3008
2020-10-22 22:23:53 GMT 50.541576 -0.427947 20,075 5 464 -3200
2020-10-22 22:23:50 GMT 50.536270 -0.428615 20,175 4 466 -3264
2020-10-22 22:23:47 GMT 50.529327 -0.429479 20,350 4 468 -3200
2020-10-22 22:23:44 GMT 50.520859 -0.430418 20,600 3 471 -2880
2020-10-22 22:23:41 GMT 50.516300 -0.430842 20,675 3 472 -2624
2020-10-22 22:23:38 GMT 50.507309 -0.431647 20,850 2 477 -2048
2020-10-22 22:23:35 GMT 50.501541 -0.432081 20,875 2 477 -2048
2020-10-22 22:23:32 GMT 50.494720 -0.432514 21,025 2 478 -1984
2020-10-22 22:23:29 GMT 50.489811 -0.432772 21,150 1 479 -2240
2020-10-22 22:23:26 GMT 50.482269 -0.433093 21,225 1 479 -2432
2020-10-22 22:23:23 GMT 50.476730 -0.433292 21,325 0 479 -2496
2020-10-22 22:23:20 GMT 50.469772 -0.433382 21,500 0 479 -2624
2020-10-22 22:23:17 GMT 50.463547 -0.433454 21,600 0 479 -2560
2020-10-22 22:23:14 GMT 50.456249 -0.433366 21,725 0 479 -2560
2020-10-22 22:23:11 GMT 50.442444 -0.433237 21,925 0 480 -2240
2020-10-22 22:23:08 GMT 50.442444 -0.433237 21,975 0 480 -2240
2020-10-22 22:23:05 GMT 50.436275 -0.433143 22,050 0 481 -2176
2020-10-22 22:23:02 GMT 50.428268 -0.432995 22,200 0 482 -1856
2020-10-22 22:22:59 GMT 50.422684 -0.432921 22,275 0 483 -1664
2020-10-22 22:22:56 GMT 50.415939 -0.432876 22,350 0 485 -1472
2020-10-22 22:22:53 GMT 50.402481 -0.432624 23,275 0 476 -1856
2020-10-22 22:22:50 GMT 50.395824 -0.432475 22,600 0 485 -1920
2020-10-22 22:22:47 GMT 50.388329 -0.432327 22,675 0 484 -1920
2020-10-22 22:22:44 GMT 50.388329 -0.432327 22,725 0 484 -1920
2020-10-22 22:22:41 GMT 50.381950 -0.432178 22,775 0 484 -1856
2020-10-22 22:22:38 GMT 50.376457 -0.432104 22,900 0 483 -1856
2020-10-22 22:22:35 GMT 50.369614 -0.431936 23,225 0 480 -1856
2020-10-22 22:22:32 GMT 50.362492 -0.431807 23,100 0 480 -1856
2020-10-22 22:22:29 GMT 50.348053 -0.431575 23,225 0 479 -1856
2020-10-22 22:22:26 GMT 50.348053 -0.431575 23,275 0 479 -1792
2020-10-22 22:22:23 GMT 50.341370 -0.431430 23,325 0 478 -1856
2020-10-22 22:22:20 GMT 50.334229 -0.431286 23,450 0 477 -1920
2020-10-22 22:22:17 GMT 50.329971 -0.431213 23,500 0 477 -1920
2020-10-22 22:22:14 GMT 50.321899 -0.431139 23,625 0 476 -1856
2020-10-22 22:22:11 GMT 50.307632 -0.430852 23,775 0 475 -1792
2020-10-22 22:22:08 GMT 50.302643 -0.430780 23,900 0 475 -1984
2020-10-22 22:22:05 GMT 50.302643 -0.430780 24,100 0 476 -1984
2020-10-22 22:22:02 GMT 50.293808 -0.430635 24,050 0 476 -2048
2020-10-22 22:21:59 GMT 50.290524 -0.430545 24,200 0 476 -2304
2020-10-22 22:21:56 GMT 50.283867 -0.430471 24,200 0 476 -2304
2020-10-22 22:21:53 GMT 50.276688 -0.430274 24,325 0 476 -2496
2020-10-22 22:21:50 GMT 50.269958 -0.430201 24,475 0 476 -2944
2020-10-22 22:21:47 GMT 50.261940 -0.430026 24,700 0 474 -3456
2020-10-22 22:21:44 GMT 50.257099 -0.429951 24,875 0 473 -3520
2020-10-22 22:21:41 GMT 50.250347 -0.429803 24,975 0 472 -3328
2020-10-22 22:21:38 GMT 50.243645 -0.429655 25,075 0 472 -2752
2020-10-22 22:21:35 GMT 50.236679 -0.429551 25,325 0 474 -1792
2020-10-22 22:21:32 GMT 50.229866 -0.429432 25,350 0 474 -1792
2020-10-22 22:21:29 GMT 50.223675 -0.429358 25,475 0 475 -1792
2020-10-22 22:21:26 GMT 50.218227 -0.429209 25,525 0 475 -1792
2020-10-22 22:21:23 GMT 50.210907 -0.429117 25,600 0 476 -1792
2020-10-22 22:21:20 GMT 50.204315 -0.429045 25,650 0 477 -1728
2020-10-22 22:21:17 GMT 50.196766 -0.428912 25,850 0 479 -1792
2020-10-22 22:21:14 GMT 50.188805 -0.428838 25,900 0 481 -1792
2020-10-22 22:21:11 GMT 50.184708 -0.428764 26,000 0 480 -1792
2020-10-22 22:21:08 GMT 50.177540 -0.428689 26,050 0 481 -1792
2020-10-22 22:21:05 GMT 50.171955 -0.428615 26,100 0 482 -1792
2020-10-22 22:21:02 GMT 50.164970 -0.428467 26,225 0 483 -1792
2020-10-22 22:20:59 GMT 50.157394 -0.428322 26,300 0 484 -1792
2020-10-22 22:20:56 GMT 50.152264 -0.428244 26,350 0 484 -1792
2020-10-22 22:20:53 GMT 50.144028 -0.428178 26,550 0 486 -1792
2020-10-22 22:20:50 GMT 50.130989 -0.427947 26,650 0 487 -1792
2020-10-22 22:20:44 GMT 50.123959 -0.427799 26,775 0 488 -1856
2020-10-22 22:20:41 GMT 50.117439 -0.427724 26,850 0 489 -1856
2020-10-22 22:20:38 GMT 50.111576 -0.427576 26,975 0 490 -1792
2020-10-22 22:20:35 GMT 50.104156 -0.427455 27,025 0 491 -1792
2020-10-22 22:20:32 GMT 50.088684 -0.427238 27,250 0 493 -1856
2020-10-22 22:20:29 GMT 50.088684 -0.427238 27,250 0 494 -1856
2020-10-22 22:20:26 GMT 50.082870 -0.427166 27,325 0 494 -1856
2020-10-22 22:20:23 GMT 50.075775 -0.427094 27,400 0 495 -1920
2020-10-22 22:20:20 GMT 50.069962 -0.427021 27,500 0 496 -1920
2020-10-22 22:20:17 GMT 50.063210 -0.426908 27,575 0 497 -1856
2020-10-22 22:20:14 GMT 50.049335 -0.426685 27,700 0 498 -1920
2020-10-22 22:20:11 GMT 50.049335 -0.426685 27,825 0 499 -1920
2020-10-22 22:20:08 GMT 50.042168 -0.426611 27,900 0 500 -1856
2020-10-22 22:20:05 GMT 50.033924 -0.426537 27,950 0 501 -1856
2020-10-22 22:20:02 GMT 50.022987 -0.426388 28,150 0 502 -1856
2020-10-22 22:19:56 GMT 50.014709 -0.426298 28,275 0 504 -1920
2020-10-22 22:19:53 GMT 50.005692 -0.426154 28,375 0 505 -1920
2020-10-22 22:19:50 GMT 49.999603 -0.426082 28,450 0 506 -1920
2020-10-22 22:19:47 GMT 49.991913 -0.426009 28,500 0 506 -1920
2020-10-22 22:19:44 GMT 49.986351 -0.425869 28,625 0 507 -1920
2020-10-22 22:19:41 GMT 49.971359 -0.425720 28,775 0 509 -1984
2020-10-22 22:19:38 GMT 49.971359 -0.425720 28,850 0 510 -1984
2020-10-22 22:19:35 GMT 49.965134 -0.425576 28,975 0 510 -1984
2020-10-22 22:19:32 GMT 49.956882 -0.425498 29,050 0 511 -1984
2020-10-22 22:19:29 GMT 49.950714 -0.425431 29,150 0 512 -1984
2020-10-22 22:19:26 GMT 49.944965 -0.425349 29,200 0 512 -1984
2020-10-22 22:19:23 GMT 49.937099 -0.425275 29,550 0 504 -1920
2020-10-22 22:19:20 GMT 49.928623 -0.425126 29,450 0 511 -1984
2020-10-22 22:19:17 GMT 49.922016 -0.425052 29,500 0 511 -1984
2020-10-22 22:19:14 GMT 49.914871 -0.424925 29,650 0 511 -1984
2020-10-22 22:19:11 GMT 49.907818 -0.424829 29,775 0 510 -1984
2020-10-22 22:19:08 GMT 49.901718 -0.424681 29,825 0 505 -1984
2020-10-22 22:19:05 GMT 49.894867 -0.424564 29,900 0 509 -1984
2020-10-22 22:19:02 GMT 49.889099 -0.424491 30,025 0 507 -1984
2020-10-22 22:18:59 GMT 49.880444 -0.424310 30,100 0 507 -1984
2020-10-22 22:18:56 GMT 49.874622 -0.424161 30,175 0 506 -1984
2020-10-22 22:18:53 GMT 49.859253 -0.423841 30,425 0 504 -1920
2020-10-22 22:18:50 GMT 49.859253 -0.423841 30,400 0 503 -1920
2020-10-22 22:18:47 GMT 49.851974 -0.423696 30,600 0 502 -1920
2020-10-22 22:18:44 GMT 49.844879 -0.423552 30,625 0 500 -1920
2020-10-22 22:18:41 GMT 49.839104 -0.423419 30,650 0 500 -1920
2020-10-22 22:18:38 GMT 49.829796 -0.423271 30,825 0 497 -1920
2020-10-22 22:18:32 GMT 49.817596 -0.423046 31,175 0 493 -1920
2020-10-22 22:18:29 GMT 49.811638 -0.422899 31,050 0 494 -1856
2020-10-22 22:18:26 GMT 49.801723 -0.422751 31,200 0 493 -1920
2020-10-22 22:18:23 GMT 49.797134 -0.422685 31,250 0 493 -1920
2020-10-22 22:18:20 GMT 49.791229 -0.422612 31,350 0 492 -1920
2020-10-22 22:18:17 GMT 49.777634 -0.422395 31,500 0 492 -1920
2020-10-22 22:18:11 GMT 49.770126 -0.422323 31,725 0 492 -1920
2020-10-22 22:18:08 GMT 49.764900 -0.422306 31,775 0 492 -1920
2020-10-22 22:18:05 GMT 49.756756 -0.422157 31,825 0 492 -1920
2020-10-22 22:18:02 GMT 49.750237 -0.422083 31,900 0 493 -1856
2020-10-22 22:17:59 GMT 49.741486 -0.422009 32,100 0 494 -1792
2020-10-22 22:17:56 GMT 49.736549 -0.421860 32,125 0 494 -1792
2020-10-22 22:17:53 GMT 49.729801 -0.421786 32,200 0 495 -1792
2020-10-22 22:17:50 GMT 49.723755 -0.421673 32,325 0 496 -1920
2020-10-22 22:17:47 GMT 49.708603 -0.421311 32,425 0 496 -2048
2020-10-22 22:17:44 GMT 49.708603 -0.421311 32,500 0 496 -2176
2020-10-22 22:17:41 GMT 49.700611 -0.421192 32,725 0 496 -2624
2020-10-22 22:17:38 GMT 49.692444 -0.421022 32,800 0 496 -2432
2020-10-22 22:17:35 GMT 49.687717 -0.420895 32,875 0 496 -2368
2020-10-22 22:17:32 GMT 49.680679 -0.420805 32,925 0 496 -2240
2020-10-22 22:17:29 GMT 49.673286 -0.420672 33,125 0 497 -1920
2020-10-22 22:17:26 GMT 49.666397 -0.420598 33,200 0 497 -1920
2020-10-22 22:17:23 GMT 49.660717 -0.420524 33,500 0 499 -1920
2020-10-22 22:17:20 GMT 49.653782 -0.420376 33,475 0 499 -1920
2020-10-22 22:17:17 GMT 49.646610 -0.420301 33,450 0 499 -1920
2020-10-22 22:17:14 GMT 49.639164 -0.420227 33,575 0 499 -1920
2020-10-22 22:17:11 GMT 49.634323 -0.420153 33,650 0 500 -1920
2020-10-22 22:17:08 GMT 49.626873 -0.420004 33,725 0 500 -1920
2020-10-22 22:17:05 GMT 49.617966 -0.419866 33,875 0 501 -1920
2020-10-22 22:17:02 GMT 49.612534 -0.419782 33,950 0 501 -1920
2020-10-22 22:16:59 GMT 49.604343 -0.419633 34,025 0 502 -1920
2020-10-22 22:16:56 GMT 49.597412 -0.419504 34,175 0 503 -1984
2020-10-22 22:16:53 GMT 49.591507 -0.419432 34,225 0 503 -1984
2020-10-22 22:16:50 GMT 49.584641 -0.419360 34,300 0 503 -1920
2020-10-22 22:16:47 GMT 49.570724 -0.419143 34,450 0 505 -1856
2020-10-22 22:16:44 GMT 49.563377 -0.419039 34,550 0 505 -1856
2020-10-22 22:16:41 GMT 49.563377 -0.419039 34,650 0 506 -1856
2020-10-22 22:16:38 GMT 49.553692 -0.418891 34,750 0 507 -1856
2020-10-22 22:16:35 GMT 49.548615 -0.418854 34,825 0 508 -1856
2020-10-22 22:16:32 GMT 49.543808 -0.418781 34,900 0 509 -1856
2020-10-22 22:16:29 GMT 49.528152 -0.418565 35,925 0 511 -1920
2020-10-22 22:16:26 GMT 49.521385 -0.418445 35,100 0 510 -1920
2020-10-22 22:16:23 GMT 49.513687 -0.418348 35,275 0 511 -1920
2020-10-22 22:16:20 GMT 49.513687 -0.418348 35,275 0 511 -1920
2020-10-22 22:16:17 GMT 49.505466 -0.418223 35,325 0 512 -1920
2020-10-22 22:16:14 GMT 49.499599 -0.418149 35,425 0 512 -1920
2020-10-22 22:16:11 GMT 49.492432 -0.418000 35,550 0 513 -1856
2020-10-22 22:16:08 GMT 49.486332 -0.417926 35,600 0 513 -1920
2020-10-22 22:16:05 GMT 49.479218 -0.417842 35,725 0 514 -1920
2020-10-22 22:16:02 GMT 49.471527 -0.417697 36,225 0 516 -1792
2020-10-22 22:15:59 GMT 49.463707 -0.417629 35,950 0 516 -1792
2020-10-22 22:15:56 GMT 49.453327 -0.417480 36,050 0 517 -1600
2020-10-22 22:15:53 GMT 49.448868 -0.417408 36,100 0 517 -1600
2020-10-22 22:15:50 GMT 49.435265 -0.417184 36,225 0 519 -1408
2020-10-22 22:15:47 GMT 49.435265 -0.417184 36,300 0 519 -1280
2020-10-22 22:15:44 GMT 49.427948 -0.417047 36,325 0 520 -1088
2020-10-22 22:15:41 GMT 49.419296 -0.416847 36,400 0 520 -832
2020-10-22 22:15:38 GMT 49.414307 -0.416776 36,425 0 521 -896
2020-10-22 22:15:35 GMT 49.407303 -0.416706 36,425 0 521 -896
2020-10-22 22:15:32 GMT 49.399887 -0.416565 36,450 0 521 -960
2020-10-22 22:15:29 GMT 49.392197 -0.416424 36,575 0 521 -1088
2020-10-22 22:15:26 GMT 49.383499 -0.416324 36,600 0 521 -960
2020-10-22 22:15:23 GMT 49.378464 -0.416213 36,650 0 521 -896
2020-10-22 22:15:20 GMT 49.369625 -0.416107 36,700 0 521 -832
2020-10-22 22:15:17 GMT 49.361572 -0.415963 36,775 0 522 -832
2020-10-22 22:15:14 GMT 49.355289 -0.415890 36,775 0 522 -832
2020-10-22 22:15:08 GMT 49.341934 -0.415649 36,850 0 523 -896
2020-10-22 22:15:05 GMT 49.335480 -0.415579 36,875 0 523 -832
2020-10-22 22:15:02 GMT 49.327171 -0.415384 36,925 0 523 -832
2020-10-22 22:14:59 GMT 49.312729 -0.415227 37,000 0 524 -960
2020-10-22 22:14:56 GMT 49.312729 -0.415227 37,050 0 524 -1024
2020-10-22 22:14:53 GMT 49.305523 -0.415095 37,275 0 524 -1216
2020-10-22 22:14:50 GMT 49.298126 -0.415016 37,175 0 524 -1280
2020-10-22 22:14:47 GMT 49.290756 -0.414875 37,175 0 524 -1280
2020-10-22 22:14:44 GMT 49.284760 -0.414804 37,250 0 524 -1216
2020-10-22 22:14:41 GMT 49.278214 -0.414663 37,325 0 524 -1216
2020-10-22 22:14:38 GMT 49.269215 -0.414517 37,875 0 524 -1216
2020-10-22 22:14:35 GMT 49.261368 -0.414382 37,500 0 524 -1216
2020-10-22 22:14:31 GMT 49.253616 -0.414228 37,625 0 524 -1216
2020-10-22 22:14:28 GMT 49.244774 -0.414083 37,600 0 524 -1280
2020-10-22 22:14:25 GMT 49.237370 -0.413939 37,725 0 523 -1280
2020-10-22 22:14:22 GMT 49.229362 -0.413794 37,750 0 523 -1280
2020-10-22 22:14:19 GMT 49.222000 -0.413678 37,775 0 523 -1280
2020-10-22 22:14:16 GMT 49.214996 -0.413607 37,875 0 523 -1152
2020-10-22 22:14:13 GMT 49.208221 -0.413466 38,425 0 523 -1152
2020-10-22 22:14:10 GMT 49.201813 -0.413396 37,975 0 524 -1152
2020-10-22 22:14:07 GMT 49.194637 -0.413288 38,000 0 524 -1088
2020-10-22 22:14:04 GMT 49.186935 -0.413255 38,075 0 524 -1152
2020-10-22 22:14:01 GMT 49.178574 -0.413144 38,150 0 524 -1280
2020-10-22 22:13:58 GMT 49.171097 -0.413044 38,175 0 523 -1472
2020-10-22 22:13:55 GMT 49.163166 -0.412927 38,325 0 523 -1792
2020-10-22 22:13:52 GMT 49.158092 -0.412782 38,400 0 521 -1856
2020-10-22 22:13:49 GMT 49.150970 -0.412710 38,675 0 520 -1792
2020-10-22 22:13:46 GMT 49.135189 -0.412421 38,575 0 521 -1856
2020-10-22 22:13:43 GMT 49.135189 -0.412421 38,625 0 520 -1664
2020-10-22 22:13:40 GMT 49.129715 -0.412339 38,700 0 519 -1216
2020-10-22 22:13:37 GMT 49.122116 -0.412269 38,775 0 519 -1280
2020-10-22 22:13:34 GMT 49.113075 -0.412132 38,875 0 519 -1024
2020-10-22 22:13:31 GMT 49.107742 -0.412058 38,900 0 519 -768
2020-10-22 22:13:28 GMT 49.100464 -0.411987 39,000 0 524 0
2020-10-22 22:13:25 GMT 49.085587 -0.411776 38,975 0 521 -320
2020-10-22 22:13:22 GMT 49.085587 -0.411776 38,975 0 521 -320
2020-10-22 22:13:19 GMT 49.078354 -0.411635 39,000 0 522 -128
2020-10-22 22:13:16 GMT 49.071716 -0.411565 39,000 0 522 -128
2020-10-22 22:13:13 GMT 49.063385 -0.411424 39,000 0 523 -64
2020-10-22 22:13:10 GMT 49.057068 -0.411353 39,000 0 523 -64
2020-10-22 22:13:07 GMT 49.049423 -0.411213 39,000 0 523 0
2020-10-22 22:13:04 GMT 49.042038 -0.411120 39,000 0 523 0
2020-10-22 22:13:01 GMT 49.035801 -0.410975 39,000 0 523 0
2020-10-22 22:12:58 GMT 49.029003 -0.410903 39,000 0 523 0
2020-10-22 22:12:52 GMT 49.014011 -0.410686 39,000 0 523 0
2020-10-22 22:12:49 GMT 48.998245 -0.410438 39,000 0 524 0
2020-10-22 22:12:46 GMT 48.998245 -0.410438 39,000 0 524 0
2020-10-22 22:12:43 GMT 48.985195 -0.410253 39,000 0 524 0
2020-10-22 22:12:40 GMT 48.985195 -0.410253 39,000 0 524 0
2020-10-22 22:12:37 GMT 48.975842 -0.410108 39,000 0 524 0
2020-10-22 22:12:34 GMT 48.969772 -0.410015 39,000 0 524 0
2020-10-22 22:12:31 GMT 48.955124 -0.409804 39,000 0 524 0
2020-10-22 22:12:28 GMT 48.955124 -0.409804 39,000 0 524 0
2020-10-22 22:12:25 GMT 48.947815 -0.409747 39,000 0 524 0
2020-10-22 22:12:22 GMT 48.941578 -0.409602 39,000 0 525 0
2020-10-22 22:12:19 GMT 48.932499 -0.409530 39,000 0 525 0
2020-10-22 22:12:16 GMT 48.918961 -0.409311 39,000 0 525 0
2020-10-22 22:12:13 GMT 48.918961 -0.409311 39,000 0 525 0
2020-10-22 22:12:10 GMT 48.912094 -0.409241 39,000 0 525 0
2020-10-22 22:12:07 GMT 48.903358 -0.409096 39,000 0 525 0
2020-10-22 22:12:04 GMT 48.897076 -0.409024 39,000 0 525 0
2020-10-22 22:12:01 GMT 48.881527 -0.408807 39,000 0 525 0
2020-10-22 22:11:58 GMT 48.881527 -0.408807 39,000 0 525 -64
2020-10-22 22:11:55 GMT 48.875751 -0.408735 39,000 0 525 -64
2020-10-22 22:11:52 GMT 48.868351 -0.408662 39,000 0 524 0
2020-10-22 22:11:49 GMT 48.861877 -0.408607 39,000 0 524 0
2020-10-22 22:11:46 GMT 48.853359 -0.408518 39,000 0 524 0
2020-10-22 22:11:43 GMT 48.839397 -0.408301 39,000 0 524 0
2020-10-22 22:11:40 GMT 48.839397 -0.408301 39,000 0 524 0
2020-10-22 22:11:37 GMT 48.832043 -0.408229 39,000 0 524 0
2020-10-22 22:11:34 GMT 48.824871 -0.408084 39,000 0 524 0
2020-10-22 22:11:31 GMT 48.809097 -0.407832 39,000 0 524 0
2020-10-22 22:11:28 GMT 48.809097 -0.407832 39,000 0 524 0
2020-10-22 22:11:25 GMT 48.803040 -0.407795 39,000 0 524 0
2020-10-22 22:11:22 GMT 48.795731 -0.407651 39,000 0 524 0
2020-10-22 22:11:19 GMT 48.788143 -0.407578 39,000 0 524 0
2020-10-22 22:11:15 GMT 48.779388 -0.407434 39,000 0 524 0
2020-10-22 22:11:12 GMT 48.773293 -0.407361 39,000 0 524 0
2020-10-22 22:11:09 GMT 48.764328 -0.407269 39,000 0 524 0
2020-10-22 22:11:06 GMT 48.755184 -0.407145 39,000 0 524 0
2020-10-22 22:11:03 GMT 48.750061 -0.407072 39,000 0 524 0
2020-10-22 22:10:59 GMT 48.740479 -0.406987 39,000 0 523 0
2020-10-22 22:10:56 GMT 48.731506 -0.406846 39,000 0 523 0
2020-10-22 22:10:53 GMT 48.725693 -0.406776 39,000 0 523 0
2020-10-22 22:10:50 GMT 48.716904 -0.406705 39,000 0 523 0
2020-10-22 22:10:46 GMT 48.701340 -0.406494 39,000 0 523 0
2020-10-22 22:10:43 GMT 48.701340 -0.406494 39,000 0 523 0
2020-10-22 22:10:40 GMT 48.694153 -0.406422 39,000 0 523 0
2020-10-22 22:10:37 GMT 48.686096 -0.406283 39,000 0 522 0
2020-10-22 22:10:34 GMT 48.679768 -0.406205 39,000 0 522 0
2020-10-22 22:10:31 GMT 48.671204 -0.406060 39,000 0 522 0
2020-10-22 22:10:28 GMT 48.662613 -0.405860 39,000 0 522 64
2020-10-22 22:10:24 GMT 48.655518 -0.405719 39,000 0 522 0
2020-10-22 22:10:21 GMT 48.646950 -0.405482 39,000 0 522 0
2020-10-22 22:10:18 GMT 48.641174 -0.405410 39,000 0 522 0
2020-10-22 22:10:15 GMT 48.631485 -0.405156 39,000 0 521 0
2020-10-22 22:10:12 GMT 48.626282 -0.404976 39,000 0 521 0
2020-10-22 22:10:09 GMT 48.619034 -0.404804 39,000 0 521 0
2020-10-22 22:10:06 GMT 48.612122 -0.404734 39,000 0 521 -64
2020-10-22 22:10:03 GMT 48.606960 -0.404615 39,000 0 522 0
2020-10-22 22:10:00 GMT 48.597092 -0.404543 39,000 359 519 0
2020-10-22 22:09:57 GMT 48.592163 -0.404452 39,000 0 521 64
2020-10-22 22:09:54 GMT 48.584801 -0.404326 39,000 358 518 0
2020-10-22 22:09:51 GMT 48.577724 -0.403820 39,000 354 514 0
2020-10-22 22:09:47 GMT 48.567078 -0.402480 39,000 328 487 0
2020-10-22 22:09:44 GMT 48.559616 -0.401142 39,000 352 512 0
2020-10-22 22:09:41 GMT 48.554031 -0.399917 39,000 351 510 0
2020-10-22 22:09:38 GMT 48.546844 -0.397973 39,000 349 508 0
2020-10-22 22:09:35 GMT 48.537365 -0.394930 39,000 348 506 0
2020-10-22 22:09:32 GMT 48.533569 -0.393606 39,000 347 505 64
2020-10-22 22:09:29 GMT 48.525352 -0.390231 39,000 344 503 0
2020-10-22 22:09:26 GMT 48.511002 -0.383254 39,000 339 498 0
2020-10-22 22:09:23 GMT 48.511002 -0.383254 39,000 340 499 0
2020-10-22 22:09:20 GMT 48.504780 -0.379751 39,000 339 498 0
2020-10-22 22:09:17 GMT 48.497223 -0.375085 39,000 337 496 0
2020-10-22 22:09:14 GMT 48.491913 -0.371563 39,000 336 494 0
2020-10-22 22:09:11 GMT 48.487370 -0.368331 39,000 333 492 -64
2020-10-22 22:09:08 GMT 48.481129 -0.363705 39,000 322 482 0
2020-10-22 22:09:05 GMT 48.473648 -0.357689 39,000 331 490 0
2020-10-22 22:09:02 GMT 48.463253 -0.348455 39,000 329 487 0
2020-10-22 22:08:59 GMT 48.463253 -0.348455 39,000 328 487 0
2020-10-22 22:08:56 GMT 48.458542 -0.343957 39,000 326 486 0
2020-10-22 22:08:53 GMT 48.452175 -0.337540 39,000 325 484 0
2020-10-22 22:08:50 GMT 48.446587 -0.331541 39,000 325 484 0
2020-10-22 22:08:47 GMT 48.441055 -0.325294 39,000 322 482 0
2020-10-22 22:08:44 GMT 48.435276 -0.318531 39,000 322 482 0
2020-10-22 22:08:41 GMT 48.430893 -0.313392 39,000 322 482 0
2020-10-22 22:08:37 GMT 48.424713 -0.306138 39,000 322 482 0
2020-10-22 22:08:34 GMT 48.416748 -0.296701 39,000 322 482 0
2020-10-22 22:08:31 GMT 48.410881 -0.289764 39,000 322 482 0
2020-10-22 22:08:28 GMT 48.407227 -0.285504 39,000 322 482 0
2020-10-22 22:08:25 GMT 48.401779 -0.279095 39,000 322 482 0
2020-10-22 22:08:22 GMT 48.397568 -0.274165 39,000 322 482 0
2020-10-22 22:08:19 GMT 48.391422 -0.266924 39,000 322 482 0
2020-10-22 22:08:16 GMT 48.386864 -0.261504 39,000 322 482 0
2020-10-22 22:08:13 GMT 48.381367 -0.255143 39,000 322 482 0
2020-10-22 22:08:10 GMT 48.376991 -0.249939 39,000 322 483 0
2020-10-22 22:08:07 GMT 48.370754 -0.242639 39,000 322 483 0
2020-10-22 22:08:04 GMT 48.359665 -0.229657 39,000 322 483 64
2020-10-22 22:08:01 GMT 48.359665 -0.229657 39,000 322 483 0
2020-10-22 22:07:56 GMT 48.351994 -0.220666 39,000 322 483 0
2020-10-22 22:07:52 GMT 48.338215 -0.204476 39,000 322 483 0
2020-10-22 22:07:49 GMT 48.338215 -0.204476 39,000 322 483 0
2020-10-22 22:07:46 GMT 48.333710 -0.199162 39,000 322 483 0
2020-10-22 22:07:43 GMT 48.328079 -0.192613 39,000 322 483 -64
2020-10-22 22:07:40 GMT 48.323502 -0.187261 39,000 322 483 -64
2020-10-22 22:07:36 GMT 48.315868 -0.178311 39,000 322 483 -64
2020-10-22 22:07:33 GMT 48.310272 -0.171697 39,000 322 483 0
2020-10-22 22:07:30 GMT 48.305630 -0.166240 39,000 322 483 0
2020-10-22 22:07:27 GMT 48.301117 -0.160992 39,000 322 483 0
2020-10-22 22:07:24 GMT 48.295059 -0.153881 39,000 322 483 0
2020-10-22 22:07:21 GMT 48.289616 -0.147448 39,000 323 484 64
2020-10-22 22:07:17 GMT 48.282677 -0.139353 39,000 323 484 64
2020-10-22 22:07:11 GMT 48.270481 -0.125114 39,000 323 484 0
2020-10-22 22:07:08 GMT 48.267197 -0.121272 39,000 323 484 0
2020-10-22 22:07:05 GMT 48.261963 -0.115140 39,000 323 484 0
2020-10-22 22:07:02 GMT 48.256348 -0.108596 39,000 323 485 0
2020-10-22 22:06:59 GMT 48.250809 -0.102117 39,000 323 485 0
2020-10-22 22:06:56 GMT 48.246918 -0.097609 39,000 323 485 64
2020-10-22 22:06:53 GMT 48.233414 -0.081975 39,000 323 485 0
2020-10-22 22:06:50 GMT 48.233414 -0.081975 39,000 323 485 64
2020-10-22 22:06:46 GMT 48.228973 -0.076763 38,975 323 485 64
2020-10-22 22:06:43 GMT 48.222298 -0.069026 39,000 323 485 64
2020-10-22 22:06:37 GMT 48.211407 -0.056449 39,000 323 486 -64
2020-10-22 22:06:34 GMT 48.206799 -0.051101 39,000 323 486 0
2020-10-22 22:06:31 GMT 48.201488 -0.045029 39,000 323 486 0
2020-10-22 22:06:28 GMT 48.195831 -0.038452 39,000 323 487 0
2020-10-22 22:06:25 GMT 48.190830 -0.032742 39,000 323 486 0
2020-10-22 22:06:22 GMT 48.184593 -0.025514 39,000 323 487 0
2020-10-22 22:06:16 GMT 48.175003 -0.014508 39,000 323 486 0
2020-10-22 22:06:13 GMT 48.168823 -0.007465 39,000 323 487 0
2020-10-22 22:06:10 GMT 48.164932 -0.003028 39,000 323 487 0
2020-10-22 22:06:07 GMT 48.152252 0.011467 39,000 323 487 0
2020-10-22 22:06:04 GMT 48.152252 0.011467 39,000 323 486 0
2020-10-22 22:06:01 GMT 48.146046 0.018592 39,000 323 486 0
2020-10-22 22:05:58 GMT 48.142647 0.022466 39,000 323 486 0
2020-10-22 22:05:55 GMT 48.135864 0.030144 39,000 323 486 0
2020-10-22 22:05:52 GMT 48.132130 0.034367 39,000 323 486 0
2020-10-22 22:05:49 GMT 48.125565 0.041885 39,000 323 486 0
2020-10-22 22:05:46 GMT 48.121094 0.046903 39,000 323 486 0
2020-10-22 22:05:40 GMT 48.110390 0.059087 39,000 323 486 0
2020-10-22 22:05:36 GMT 48.103226 0.067223 39,000 323 486 0
2020-10-22 22:05:33 GMT 48.098053 0.073059 39,000 323 486 0
2020-10-22 22:05:30 GMT 48.092606 0.079228 39,000 323 486 0
2020-10-22 22:05:27 GMT 48.086884 0.085762 39,000 323 486 0
2020-10-22 22:05:24 GMT 48.081482 0.091873 39,000 323 486 0
2020-10-22 22:05:20 GMT 48.068848 0.106155 39,000 323 486 0
2020-10-22 22:05:17 GMT 48.068848 0.106155 39,000 323 486 0
2020-10-22 22:05:14 GMT 48.062714 0.113159 39,000 323 486 0
2020-10-22 22:05:11 GMT 48.058250 0.118244 39,000 323 486 64
2020-10-22 22:05:08 GMT 48.052990 0.124371 39,000 323 486 0
2020-10-22 22:05:05 GMT 48.047821 0.130287 39,000 323 486 0
2020-10-22 22:05:02 GMT 48.043304 0.135544 39,000 323 485 0
2020-10-22 22:04:59 GMT 48.028641 0.152611 39,000 323 485 -64
2020-10-22 22:04:55 GMT 48.028641 0.152611 39,000 323 485 -64
2020-10-22 22:04:52 GMT 48.025196 0.156626 39,000 323 485 -64
2020-10-22 22:04:49 GMT 48.012680 0.171181 39,000 323 485 0
2020-10-22 22:04:45 GMT 48.012680 0.171181 39,000 322 484 64
2020-10-22 22:04:42 GMT 48.008194 0.176399 39,000 321 483 64
2020-10-22 22:04:39 GMT 48.001740 0.184502 39,000 318 479 0
2020-10-22 22:04:34 GMT 47.993958 0.195557 39,000 314 472 0
2020-10-22 22:04:30 GMT 47.988419 0.204689 39,000 310 466 0
2020-10-22 22:04:27 GMT 47.984299 0.212105 39,000 306 460 0
2020-10-22 22:04:24 GMT 47.980225 0.220276 39,000 306 461 0
2020-10-22 22:04:21 GMT 47.973175 0.236824 39,000 299 452 0
2020-10-22 22:04:18 GMT 47.973175 0.236824 39,000 299 452 0
2020-10-22 22:04:15 GMT 47.969196 0.247897 39,000 297 449 0
2020-10-22 22:04:12 GMT 47.967567 0.253038 39,000 295 446 0
2020-10-22 22:04:08 GMT 47.964539 0.263531 39,000 293 444 0
2020-10-22 22:04:04 GMT 47.961960 0.274246 39,000 288 437 0
2020-10-22 22:04:01 GMT 47.958115 0.294729 39,000 284 433 0
2020-10-22 22:03:54 GMT 47.956970 0.303360 39,000 280 429 0
2020-10-22 22:03:51 GMT 47.955231 0.324167 39,000 275 424 0
2020-10-22 22:03:48 GMT 47.955231 0.324167 39,000 274 422 0
2020-10-22 22:03:45 GMT 47.954811 0.340224 39,000 271 420 0
2020-10-22 22:03:42 GMT 47.954811 0.340224 39,000 268 417 0
2020-10-22 22:03:38 GMT 47.955002 0.349571 39,000 267 416 0
2020-10-22 22:03:34 GMT 47.955601 0.361352 39,000 264 413 0
2020-10-22 22:03:31 GMT 47.956253 0.368887 39,000 262 411 0
2020-10-22 22:03:28 GMT 47.957336 0.378410 39,000 259 409 0
2020-10-22 22:03:25 GMT 47.958534 0.386705 39,000 256 408 0
2020-10-22 22:03:22 GMT 47.959671 0.393448 39,000 256 407 0
2020-10-22 22:03:18 GMT 47.962070 0.405226 39,000 252 405 0
2020-10-22 22:03:15 GMT 47.963791 0.412399 39,000 249 403 0
2020-10-22 22:03:12 GMT 47.966080 0.420845 39,000 246 402 0
2020-10-22 22:03:09 GMT 47.968826 0.429634 39,000 245 401 0
2020-10-22 22:03:06 GMT 47.970871 0.435650 39,000 242 400 0
2020-10-22 22:03:03 GMT 47.973770 0.443298 39,000 238 399 0
2020-10-22 22:03:00 GMT 47.977020 0.451263 39,000 237 398 0
2020-10-22 22:02:57 GMT 47.979717 0.457059 39,000 233 397 0
2020-10-22 22:02:54 GMT 47.983067 0.463891 39,000 234 398 0
2020-10-22 22:02:51 GMT 47.987595 0.472206 39,000 227 396 0
2020-10-22 22:02:48 GMT 47.989536 0.475581 39,000 227 396 0
2020-10-22 22:02:44 GMT 47.995926 0.485458 39,000 224 396 0
2020-10-22 22:02:41 GMT 47.998764 0.489441 39,000 223 396 0
2020-10-22 22:02:38 GMT 48.002758 0.494737 39,000 221 396 0
2020-10-22 22:02:34 GMT 48.009277 0.502554 39,000 217 397 0
2020-10-22 22:02:31 GMT 48.018772 0.512273 39,000 214 396 0
2020-10-22 22:02:27 GMT 48.018772 0.512273 39,000 212 396 0
2020-10-22 22:02:24 GMT 48.023941 0.516838 39,000 211 397 0
2020-10-22 22:02:21 GMT 48.028702 0.520683 39,000 205 399 0
2020-10-22 22:02:18 GMT 48.035439 0.525513 39,000 204 399 0
2020-10-22 22:02:15 GMT 48.038883 0.527766 39,000 201 401 0
2020-10-22 22:02:12 GMT 48.043774 0.530654 39,000 191 406 0
2020-10-22 22:02:09 GMT 48.051266 0.534457 39,000 197 403 0
2020-10-22 22:02:06 GMT 48.060532 0.538189 39,000 189 409 0
2020-10-22 22:02:03 GMT 48.064590 0.539566 39,000 193 405 0
2020-10-22 22:01:57 GMT 48.071091 0.541420 39,000 189 408 0
2020-10-22 22:01:54 GMT 48.076447 0.542587 39,000 188 409 0
2020-10-22 22:01:51 GMT 48.082947 0.543755 39,000 184 412 0
2020-10-22 22:01:48 GMT 48.087669 0.544316 39,000 184 412 0
2020-10-22 22:01:45 GMT 48.093842 0.544716 39,000 182 414 0
2020-10-22 22:01:42 GMT 48.098610 0.544809 39,000 178 416 0
2020-10-22 22:01:39 GMT 48.109970 0.544175 39,000 177 417 0
2020-10-22 22:01:33 GMT 48.116180 0.543343 39,000 172 422 0
2020-10-22 22:01:30 GMT 48.123096 0.542063 39,000 171 423 64
2020-10-22 22:01:27 GMT 48.128777 0.540725 39,000 170 424 -64
2020-10-22 22:01:24 GMT 48.133621 0.539497 39,000 169 425 -64
2020-10-22 22:01:21 GMT 48.140488 0.537575 39,000 169 425 0
2020-10-22 22:01:18 GMT 48.145489 0.536217 39,000 169 425 0
2020-10-22 22:01:15 GMT 48.152237 0.534316 39,000 169 425 0
2020-10-22 22:01:12 GMT 48.158012 0.532696 39,000 169 425 0
2020-10-22 22:01:09 GMT 48.163742 0.531076 39,000 169 425 0
2020-10-22 22:01:06 GMT 48.176865 0.527344 39,000 169 425 -64
2020-10-22 22:01:02 GMT 48.182831 0.525654 39,000 169 425 -64
2020-10-22 22:00:56 GMT 48.194229 0.522414 39,000 169 425 0
2020-10-22 22:00:53 GMT 48.194229 0.522414 39,000 169 425 -64
2020-10-22 22:00:50 GMT 48.200329 0.520694 39,000 169 425 0
2020-10-22 22:00:47 GMT 48.207047 0.518752 39,000 169 425 0
2020-10-22 22:00:43 GMT 48.212723 0.517132 39,000 169 425 0
2020-10-22 22:00:40 GMT 48.218716 0.515490 39,000 169 425 0
2020-10-22 22:00:37 GMT 48.224346 0.513900 39,000 169 425 0
2020-10-22 22:00:34 GMT 48.233002 0.511428 39,000 169 425 0
2020-10-22 22:00:31 GMT 48.236938 0.510301 39,000 169 425 0
2020-10-22 22:00:28 GMT 48.243481 0.508407 39,000 169 425 0
2020-10-22 22:00:25 GMT 48.248703 0.506920 39,000 169 425 0
2020-10-22 22:00:22 GMT 48.252697 0.505805 39,000 169 424 0
2020-10-22 22:00:19 GMT 48.259541 0.503853 39,000 169 425 0
2020-10-22 22:00:16 GMT 48.265045 0.502272 39,000 169 425 0
2020-10-22 22:00:12 GMT 48.275528 0.499315 39,000 169 425 0
2020-10-22 22:00:06 GMT 48.284592 0.496779 39,000 169 425 0
2020-10-22 22:00:03 GMT 48.296040 0.493517 39,000 169 425 0
2020-10-22 21:59:57 GMT 48.302090 0.491783 39,000 169 425 0
2020-10-22 21:59:54 GMT 48.307983 0.490089 39,000 169 425 0
2020-10-22 21:59:50 GMT 48.317547 0.487374 39,000 169 426 0
2020-10-22 21:59:47 GMT 48.321362 0.486290 39,000 169 426 0
2020-10-22 21:59:44 GMT 48.327713 0.484525 39,000 169 426 0
2020-10-22 21:59:41 GMT 48.333885 0.482748 39,000 169 426 0
2020-10-22 21:59:38 GMT 48.343643 0.479948 39,000 169 426 0
2020-10-22 21:59:32 GMT 48.350365 0.477978 39,000 169 426 0
2020-10-22 21:59:29 GMT 48.356510 0.476243 39,000 169 426 0
2020-10-22 21:59:26 GMT 48.363968 0.474032 39,000 169 426 0
2020-10-22 21:59:23 GMT 48.368099 0.472846 39,000 169 426 0
2020-10-22 21:59:20 GMT 48.374359 0.471074 39,000 169 426 0
2020-10-22 21:59:17 GMT 48.380016 0.469449 39,000 169 427 0
2020-10-22 21:59:14 GMT 48.385574 0.467834 39,000 169 427 0
2020-10-22 21:59:11 GMT 48.391296 0.466215 39,000 169 427 0
2020-10-22 21:59:08 GMT 48.396030 0.464823 39,000 169 427 0
2020-10-22 21:59:05 GMT 48.402649 0.462975 39,000 169 427 0
2020-10-22 21:59:02 GMT 48.409718 0.460920 39,000 169 427 0
2020-10-22 21:58:59 GMT 48.414597 0.459524 39,000 169 427 0
2020-10-22 21:58:56 GMT 48.426060 0.456294 39,000 169 427 0
2020-10-22 21:58:50 GMT 48.431580 0.454735 39,000 169 427 0
2020-10-22 21:58:47 GMT 48.437759 0.452975 39,000 169 428 0
2020-10-22 21:58:44 GMT 48.443253 0.451425 39,000 169 428 0
2020-10-22 21:58:41 GMT 48.450729 0.449283 39,000 169 428 0
2020-10-22 21:58:38 GMT 48.455109 0.447982 39,000 169 428 0
2020-10-22 21:58:35 GMT 48.461380 0.446214 39,000 169 428 0
2020-10-22 21:58:32 GMT 48.466095 0.444876 39,000 169 428 0
2020-10-22 21:58:29 GMT 48.471863 0.443186 39,000 169 428 0
2020-10-22 21:58:26 GMT 48.485138 0.439383 39,000 169 428 0
2020-10-22 21:58:23 GMT 48.493793 0.436851 39,000 169 428 0
2020-10-22 21:58:19 GMT 48.493793 0.436851 39,000 169 428 0
2020-10-22 21:58:16 GMT 48.498913 0.435406 39,000 169 428 0
2020-10-22 21:58:13 GMT 48.504730 0.433743 39,000 169 428 0
2020-10-22 21:58:10 GMT 48.510590 0.432058 39,000 169 428 0
2020-10-22 21:58:07 GMT 48.515671 0.430650 39,000 169 428 0
2020-10-22 21:58:04 GMT 48.521530 0.428960 39,000 169 428 0
2020-10-22 21:58:01 GMT 48.527683 0.427166 39,000 169 428 0
2020-10-22 21:57:58 GMT 48.533314 0.425576 39,000 169 428 0
2020-10-22 21:57:55 GMT 48.538857 0.423986 39,000 169 428 0
2020-10-22 21:57:52 GMT 48.543823 0.422551 39,000 169 429 0
2020-10-22 21:57:49 GMT 48.550735 0.420579 39,000 169 429 0
2020-10-22 21:57:46 GMT 48.555679 0.419171 39,000 169 429 0
2020-10-22 21:57:43 GMT 48.568451 0.415509 39,000 169 429 0
2020-10-22 21:57:40 GMT 48.568451 0.415509 39,000 169 429 0
2020-10-22 21:57:37 GMT 48.573166 0.414083 39,000 169 429 0
2020-10-22 21:57:34 GMT 48.581314 0.411776 39,000 169 429 0
2020-10-22 21:57:31 GMT 48.586349 0.410297 39,000 169 429 0
2020-10-22 21:57:28 GMT 48.597107 0.407198 39,000 169 429 0
2020-10-22 21:57:22 GMT 48.610611 0.403325 39,000 169 429 64
2020-10-22 21:57:19 GMT 48.610611 0.403325 39,000 169 429 0
2020-10-22 21:57:16 GMT 48.614639 0.402128 39,000 169 429 0
2020-10-22 21:57:13 GMT 48.621552 0.400156 39,000 169 429 0
2020-10-22 21:57:10 GMT 48.627628 0.398399 39,000 169 430 0
2020-10-22 21:57:07 GMT 48.631668 0.397268 39,000 169 430 0
2020-10-22 21:57:04 GMT 48.639408 0.395002 39,000 169 430 0
2020-10-22 21:57:01 GMT 48.644760 0.393465 39,000 169 430 0
2020-10-22 21:56:58 GMT 48.649323 0.392111 39,000 169 430 0
2020-10-22 21:56:55 GMT 48.656029 0.390159 39,000 169 430 0
2020-10-22 21:56:52 GMT 48.661926 0.388465 39,000 169 430 0
2020-10-22 21:56:49 GMT 48.667282 0.386916 39,000 169 430 0
2020-10-22 21:56:46 GMT 48.679688 0.383254 39,000 169 430 0
2020-10-22 21:56:43 GMT 48.679688 0.383254 39,000 169 430 0
2020-10-22 21:56:40 GMT 48.684841 0.381775 39,000 169 430 0
2020-10-22 21:56:37 GMT 48.691593 0.379823 39,000 169 430 0
2020-10-22 21:56:33 GMT 48.704906 0.375993 39,000 169 430 0
2020-10-22 21:56:30 GMT 48.704906 0.375993 39,000 169 430 0
2020-10-22 21:56:27 GMT 48.710587 0.374330 39,000 169 430 0
2020-10-22 21:56:24 GMT 48.716080 0.372740 39,000 169 430 0
2020-10-22 21:56:21 GMT 48.723900 0.370499 39,000 169 430 0
2020-10-22 21:56:18 GMT 48.728184 0.369271 39,000 169 430 0
2020-10-22 21:56:15 GMT 48.735352 0.367175 39,000 169 430 0
2020-10-22 21:56:12 GMT 48.740147 0.365801 39,000 169 430 0
2020-10-22 21:56:09 GMT 48.745548 0.364284 39,000 169 430 0
2020-10-22 21:56:06 GMT 48.750412 0.362831 39,000 169 430 0
2020-10-22 21:56:03 GMT 48.757092 0.360959 39,000 169 430 64
2020-10-22 21:56:00 GMT 48.769474 0.357345 39,000 169 430 0
2020-10-22 21:55:57 GMT 48.775085 0.355718 39,000 169 430 0
2020-10-22 21:55:54 GMT 48.775085 0.355718 39,000 169 430 0
2020-10-22 21:55:51 GMT 48.782043 0.353675 39,000 169 430 0
2020-10-22 21:55:48 GMT 48.785889 0.352548 39,000 169 430 0
2020-10-22 21:55:45 GMT 48.792068 0.350788 39,000 169 430 0
2020-10-22 21:55:42 GMT 48.805206 0.346914 39,000 169 430 0
2020-10-22 21:55:36 GMT 48.811745 0.344985 39,000 169 430 0
2020-10-22 21:55:33 GMT 48.816818 0.343540 39,000 169 430 0
2020-10-22 21:55:30 GMT 48.821960 0.342055 39,000 169 429 0
2020-10-22 21:55:27 GMT 48.827637 0.340435 39,000 169 430 -64
2020-10-22 21:55:24 GMT 48.834835 0.338336 39,000 169 430 0
2020-10-22 21:55:20 GMT 48.841862 0.336312 39,000 169 430 0
2020-10-22 21:55:16 GMT 48.851452 0.333493 39,000 169 430 -64
2020-10-22 21:55:13 GMT 48.856293 0.332055 39,000 169 430 0
2020-10-22 21:55:10 GMT 48.861275 0.330674 39,000 169 430 0
2020-10-22 21:55:07 GMT 48.868469 0.328533 39,000 169 430 0
2020-10-22 21:55:03 GMT 48.876297 0.326280 39,000 169 430 0
2020-10-22 21:55:00 GMT 48.882202 0.324590 39,000 169 429 0
2020-10-22 21:54:57 GMT 48.887604 0.323040 39,000 169 429 0
2020-10-22 21:54:54 GMT 48.891766 0.321856 39,000 169 429 0
2020-10-22 21:54:51 GMT 48.898098 0.319977 39,000 169 429 0
2020-10-22 21:54:48 GMT 48.903809 0.318322 39,000 169 429 0
2020-10-22 21:54:45 GMT 48.909878 0.316580 39,000 169 429 0
2020-10-22 21:54:42 GMT 48.917835 0.314267 39,000 169 429 0
2020-10-22 21:54:39 GMT 48.921001 0.313327 39,000 169 429 0
2020-10-22 21:54:36 GMT 48.933338 0.309713 39,000 169 429 0
2020-10-22 21:54:33 GMT 48.933338 0.309713 39,000 169 429 0
2020-10-22 21:54:30 GMT 48.939808 0.307834 39,000 169 429 0
2020-10-22 21:54:27 GMT 48.944603 0.306461 39,000 169 429 0
2020-10-22 21:54:24 GMT 48.951355 0.304437 39,000 168 430 0
2020-10-22 21:54:21 GMT 48.956451 0.302969 39,000 169 429 0
2020-10-22 21:54:18 GMT 48.966671 0.299956 39,000 169 429 0
2020-10-22 21:54:12 GMT 48.974442 0.297617 39,000 168 430 0
2020-10-22 21:54:09 GMT 48.978447 0.296414 39,000 168 430 0
2020-10-22 21:54:06 GMT 48.985802 0.294246 39,000 169 430 0
2020-10-22 21:54:03 GMT 48.999023 0.290363 39,000 169 429 0
2020-10-22 21:54:00 GMT 48.999023 0.290363 39,000 169 429 0
2020-10-22 21:53:57 GMT 49.003555 0.289025 39,000 169 429 0
2020-10-22 21:53:54 GMT 49.008102 0.287668 39,000 169 430 0
2020-10-22 21:53:51 GMT 49.016510 0.285152 39,000 169 430 0
2020-10-22 21:53:48 GMT 49.022644 0.283391 39,000 169 430 0
2020-10-22 21:53:45 GMT 49.032349 0.280503 39,000 169 430 0
2020-10-22 21:53:42 GMT 49.032349 0.280503 39,000 169 430 0
2020-10-22 21:53:39 GMT 49.037895 0.278923 39,000 169 430 0
2020-10-22 21:53:36 GMT 49.046322 0.276465 39,000 169 430 0
2020-10-22 21:53:33 GMT 49.055397 0.273791 39,000 169 430 0
2020-10-22 21:53:30 GMT 49.055397 0.273791 39,000 169 430 0
2020-10-22 21:53:27 GMT 49.061497 0.271984 39,000 169 430 0
2020-10-22 21:53:24 GMT 49.068237 0.270010 39,000 169 429 0
2020-10-22 21:53:21 GMT 49.074417 0.268250 39,000 169 430 0
2020-10-22 21:53:18 GMT 49.079651 0.266708 39,000 169 430 0
2020-10-22 21:53:15 GMT 49.091850 0.263094 39,000 169 430 0
2020-10-22 21:53:12 GMT 49.091850 0.263094 39,000 169 430 0
2020-10-22 21:53:09 GMT 49.097061 0.261576 39,000 169 430 0
2020-10-22 21:53:06 GMT 49.102837 0.259841 39,000 169 430 0
2020-10-22 21:53:03 GMT 49.108608 0.258179 39,000 169 429 -64
2020-10-22 21:53:00 GMT 49.115021 0.256277 39,000 169 429 0
2020-10-22 21:52:57 GMT 49.124817 0.253390 39,000 169 429 0
2020-10-22 21:52:54 GMT 49.130905 0.251629 39,000 169 429 0
2020-10-22 21:52:51 GMT 49.130905 0.251629 39,000 169 429 0
2020-10-22 21:52:48 GMT 49.137703 0.249650 39,000 169 429 0
2020-10-22 21:52:45 GMT 49.145187 0.247474 39,000 169 429 0
2020-10-22 21:52:41 GMT 49.153111 0.245096 39,000 169 429 0
2020-10-22 21:52:38 GMT 49.159119 0.243362 39,000 169 429 -64
2020-10-22 21:52:35 GMT 49.163120 0.242205 39,000 169 429 0
2020-10-22 21:52:32 GMT 49.169083 0.240432 39,000 169 429 0
2020-10-22 21:52:29 GMT 49.175949 0.238389 39,000 169 429 0
2020-10-22 21:52:26 GMT 49.180950 0.236929 39,000 169 429 0
2020-10-22 21:52:23 GMT 49.188034 0.234798 39,000 169 429 0
2020-10-22 21:52:19 GMT 49.194214 0.232966 39,000 169 429 0
2020-10-22 21:52:16 GMT 49.207214 0.229093 39,000 169 429 0
2020-10-22 21:52:13 GMT 49.207214 0.229093 39,000 168 430 0
2020-10-22 21:52:10 GMT 49.212982 0.227403 39,000 168 430 0
2020-10-22 21:52:07 GMT 49.217789 0.225994 39,000 168 430 0
2020-10-22 21:52:04 GMT 49.223190 0.224375 39,000 168 430 0
2020-10-22 21:52:01 GMT 49.229969 0.222329 39,000 169 429 0
2020-10-22 21:51:58 GMT 49.234764 0.220883 39,000 169 429 0
2020-10-22 21:51:55 GMT 49.242004 0.218741 39,000 169 430 0
2020-10-22 21:51:52 GMT 49.247040 0.217262 39,000 169 430 0
2020-10-22 21:51:49 GMT 49.252808 0.215571 39,000 169 430 0
2020-10-22 21:51:46 GMT 49.258347 0.213881 39,000 169 430 0
2020-10-22 21:51:43 GMT 49.265076 0.211909 39,000 169 430 0
2020-10-22 21:51:39 GMT 49.272079 0.209867 39,000 169 430 0
2020-10-22 21:51:36 GMT 49.277802 0.208177 39,000 169 430 0
2020-10-22 21:51:33 GMT 49.284439 0.206205 39,000 169 430 0
2020-10-22 21:51:30 GMT 49.296387 0.202684 39,000 169 430 0
2020-10-22 21:51:27 GMT 49.296387 0.202684 39,000 169 430 0
2020-10-22 21:51:24 GMT 49.302200 0.200923 39,000 169 430 0
2020-10-22 21:51:21 GMT 49.307899 0.199272 39,000 169 430 0
2020-10-22 21:51:18 GMT 49.313370 0.197683 39,000 169 430 0
2020-10-22 21:51:15 GMT 49.319443 0.195875 39,000 169 430 0
2020-10-22 21:51:12 GMT 49.330708 0.192550 39,000 169 430 64
2020-10-22 21:51:06 GMT 49.336761 0.190743 39,000 169 430 0
2020-10-22 21:51:00 GMT 49.348572 0.187261 39,000 169 431 0
2020-10-22 21:50:57 GMT 49.356220 0.185033 39,000 169 431 0
2020-10-22 21:50:54 GMT 49.360874 0.183587 39,000 168 432 -64
2020-10-22 21:50:51 GMT 49.364960 0.182401 39,000 168 432 0
2020-10-22 21:50:48 GMT 49.380424 0.177733 39,000 168 432 0
2020-10-22 21:50:45 GMT 49.380424 0.177733 39,000 168 432 0
2020-10-22 21:50:42 GMT 49.382584 0.177119 39,000 168 432 0
2020-10-22 21:50:39 GMT 49.389633 0.175007 39,000 168 432 64
2020-10-22 21:50:36 GMT 49.404354 0.170577 39,000 168 432 0
2020-10-22 21:50:33 GMT 49.404354 0.170577 39,000 168 432 0
2020-10-22 21:50:30 GMT 49.407303 0.169725 39,000 168 432 0
2020-10-22 21:50:27 GMT 49.412968 0.167975 39,000 169 429 128
2020-10-22 21:50:24 GMT 49.425533 0.164217 39,000 168 432 0
2020-10-22 21:50:21 GMT 49.425533 0.164217 39,000 168 431 0
2020-10-22 21:50:18 GMT 49.430328 0.162791 39,000 169 426 0
2020-10-22 21:50:15 GMT 49.436600 0.160964 39,000 169 429 64
2020-10-22 21:50:12 GMT 49.443146 0.159013 39,000 169 429 128
2020-10-22 21:50:09 GMT 49.448685 0.157350 39,000 169 429 128
2020-10-22 21:50:06 GMT 49.454544 0.155616 38,975 168 428 192
2020-10-22 21:50:03 GMT 49.461193 0.153586 38,975 168 428 256
2020-10-22 21:50:00 GMT 49.465477 0.152324 38,950 169 428 320
2020-10-22 21:49:57 GMT 49.477478 0.148821 38,900 169 427 704
2020-10-22 21:49:54 GMT 49.477478 0.148821 38,900 169 427 576
2020-10-22 21:49:51 GMT 49.484940 0.146581 38,875 169 427 704
2020-10-22 21:49:48 GMT 49.490799 0.144846 38,850 169 427 704
2020-10-22 21:49:45 GMT 49.495411 0.143490 38,800 169 427 768
2020-10-22 21:49:42 GMT 49.500595 0.141955 38,800 168 426 768
2020-10-22 21:49:39 GMT 49.507420 0.139927 38,700 168 426 832
2020-10-22 21:49:36 GMT 49.513378 0.138146 38,675 168 426 896
2020-10-22 21:49:33 GMT 49.518356 0.136606 38,650 168 426 960
2020-10-22 21:49:30 GMT 49.524040 0.134879 38,600 168 426 960
2020-10-22 21:49:27 GMT 49.531219 0.132776 38,550 168 426 1024
2020-10-22 21:49:24 GMT 49.536049 0.131316 38,475 168 426 1024
2020-10-22 21:49:21 GMT 49.547222 0.127902 38,400 168 427 1216
2020-10-22 21:49:18 GMT 49.547222 0.127902 38,325 168 427 1280
2020-10-22 21:49:15 GMT 49.553284 0.126126 38,325 168 427 1280
2020-10-22 21:49:12 GMT 49.564400 0.122780 38,175 168 429 1408
2020-10-22 21:49:06 GMT 49.570908 0.120777 38,100 168 429 1408
2020-10-22 21:49:03 GMT 49.576767 0.119043 38,000 168 430 1408
2020-10-22 21:49:00 GMT 49.582672 0.117236 37,975 168 430 1408
2020-10-22 21:48:57 GMT 49.587864 0.115653 37,900 168 431 1408
2020-10-22 21:48:54 GMT 49.594425 0.113723 37,825 168 431 1344
2020-10-22 21:48:51 GMT 49.599335 0.112248 37,750 168 432 1280
2020-10-22 21:48:48 GMT 49.613388 0.107984 37,700 168 432 1280
2020-10-22 21:48:45 GMT 49.613388 0.107984 37,600 168 432 1280
2020-10-22 21:48:42 GMT 49.617783 0.106683 37,525 168 432 1280
2020-10-22 21:48:39 GMT 49.623661 0.104890 37,525 168 432 1280
2020-10-22 21:48:36 GMT 49.635113 0.101401 37,400 168 432 1280
2020-10-22 21:48:33 GMT 49.640991 0.099672 37,350 168 432 1344
2020-10-22 21:48:30 GMT 49.640991 0.099672 37,325 168 432 1344
2020-10-22 21:48:27 GMT 49.647125 0.097793 37,200 168 433 1344
2020-10-22 21:48:24 GMT 49.652802 0.096058 37,175 168 433 1344
2020-10-22 21:48:21 GMT 49.665466 0.092270 37,075 168 433 1088
2020-10-22 21:48:18 GMT 49.665466 0.092270 37,000 169 429 320
2020-10-22 21:48:15 GMT 49.671249 0.090493 37,025 169 432 384
2020-10-22 21:48:12 GMT 49.676010 0.089119 37,000 169 430 320
2020-10-22 21:48:09 GMT 49.682690 0.087074 37,000 169 430 320
2020-10-22 21:48:06 GMT 49.688141 0.085505 36,975 169 429 320
2020-10-22 21:48:03 GMT 49.699402 0.082101 36,950 168 427 832
2020-10-22 21:48:00 GMT 49.705036 0.080393 36,900 168 427 960
2020-10-22 21:47:57 GMT 49.705036 0.080393 36,850 168 431 2624
2020-10-22 21:47:54 GMT 49.711132 0.078537 36,800 168 427 1088
2020-10-22 21:47:51 GMT 49.718487 0.076385 36,075 168 427 1536
2020-10-22 21:47:48 GMT 49.722565 0.075170 36,725 168 426 1088
2020-10-22 21:47:45 GMT 49.729847 0.072970 36,625 168 426 1088
2020-10-22 21:47:42 GMT 49.735336 0.071267 36,575 168 426 1152
2020-10-22 21:47:39 GMT 49.740089 0.069852 36,550 168 426 1216
2020-10-22 21:47:36 GMT 49.746185 0.067996 36,425 168 426 1216
2020-10-22 21:47:33 GMT 49.751633 0.066363 36,425 168 426 1216
2020-10-22 21:47:30 GMT 49.758011 0.064433 36,350 168 425 1344
2020-10-22 21:47:27 GMT 49.768982 0.061075 35,975 168 427 1664
2020-10-22 21:47:24 GMT 49.768982 0.061075 36,200 168 426 1472
2020-10-22 21:47:21 GMT 49.774910 0.059311 35,975 168 427 1600
2020-10-22 21:47:18 GMT 49.781288 0.057381 33,825 169 427 1088
2020-10-22 21:47:15 GMT 49.786037 0.055897 35,975 168 428 1664
2020-10-22 21:47:12 GMT 49.792099 0.054064 35,950 168 428 1664
2020-10-22 21:47:09 GMT 49.798046 0.052259 35,825 168 428 1664
2020-10-22 21:47:06 GMT 49.805511 0.049944 35,625 168 429 1600
2020-10-22 21:47:03 GMT 49.809219 0.048860 35,675 168 429 1600
2020-10-22 21:47:00 GMT 49.814758 0.047212 35,550 168 429 1600
2020-10-22 21:46:57 GMT 49.821182 0.045207 35,500 168 429 1600
2020-10-22 21:46:54 GMT 49.828911 0.042906 35,400 169 429 1536
2020-10-22 21:46:50 GMT 49.840714 0.039319 35,250 169 429 1408
2020-10-22 21:46:47 GMT 49.840714 0.039319 35,200 169 429 1344
2020-10-22 21:46:44 GMT 49.846691 0.037487 35,175 169 429 1344
2020-10-22 21:46:41 GMT 49.852280 0.035854 35,125 169 429 1280
2020-10-22 21:46:38 GMT 49.858051 0.034072 35,050 168 428 1152
2020-10-22 21:46:35 GMT 49.864895 0.032068 35,000 168 428 1088
2020-10-22 21:46:32 GMT 49.877609 0.028261 34,900 168 427 960
2020-10-22 21:46:29 GMT 49.877609 0.028261 34,875 168 426 896
2020-10-22 21:46:26 GMT 49.882324 0.026815 34,850 169 426 896
2020-10-22 21:46:23 GMT 49.887566 0.025239 34,775 169 424 832
2020-10-22 21:46:20 GMT 49.893494 0.023418 34,775 169 425 832
2020-10-22 21:46:17 GMT 49.901138 0.021178 34,725 169 424 1024
2020-10-22 21:46:14 GMT 49.910843 0.018214 34,625 168 423 1344
2020-10-22 21:46:11 GMT 49.917480 0.016190 34,575 168 424 1536
2020-10-22 21:46:08 GMT 49.917480 0.016190 34,525 168 424 1728
2020-10-22 21:46:05 GMT 49.922058 0.014817 34,375 168 424 2176
2020-10-22 21:46:02 GMT 49.927322 0.013227 34,300 168 424 2432
2020-10-22 21:45:59 GMT 49.934025 0.011135 34,225 168 424 2496
2020-10-22 21:45:56 GMT 49.939957 0.009396 34,075 168 426 2688
2020-10-22 21:45:53 GMT 49.945152 0.007794 33,975 168 428 2816
2020-10-22 21:45:50 GMT 49.958466 0.003712 33,650 168 431 2560
2020-10-22 21:45:47 GMT 49.958466 0.003712 33,575 168 431 2560
2020-10-22 21:45:44 GMT 49.963585 0.002153 33,525 168 432 2432
2020-10-22 21:45:41 GMT 49.969357 0.000445 33,450 168 432 2368
2020-10-22 21:45:38 GMT 49.976028 -0.001590 33,275 168 434 2048
2020-10-22 21:45:35 GMT 49.983742 -0.003934 33,200 169 433 1984
2020-10-22 21:45:32 GMT 49.988678 -0.005419 33,075 169 434 1536
2020-10-22 21:45:29 GMT 49.992874 -0.006650 32,975 169 434 1408
2020-10-22 21:45:26 GMT 49.998222 -0.008240 32,950 169 434 1344
2020-10-22 21:45:23 GMT 50.004177 -0.010021 32,900 169 433 1344
2020-10-22 21:45:20 GMT 50.009811 -0.011654 32,850 169 433 1344
2020-10-22 21:45:17 GMT 50.016331 -0.013659 32,775 169 433 1216
2020-10-22 21:45:14 GMT 50.028168 -0.017130 32,675 169 431 1024
2020-10-22 21:45:11 GMT 50.028168 -0.017130 32,625 169 428 1216
2020-10-22 21:45:08 GMT 50.033321 -0.018632 32,550 169 429 1088
2020-10-22 21:45:05 GMT 50.041470 -0.021082 32,575 169 430 1024
2020-10-22 21:45:02 GMT 50.047474 -0.022863 32,475 169 429 1152
2020-10-22 21:44:59 GMT 50.051476 -0.024051 32,450 169 428 1216
2020-10-22 21:44:56 GMT 50.062557 -0.027317 32,325 169 427 1152
2020-10-22 21:44:53 GMT 50.062557 -0.027317 32,250 169 426 1024
2020-10-22 21:44:50 GMT 50.068794 -0.029173 31,650 169 421 1344
2020-10-22 21:44:47 GMT 50.074722 -0.030935 32,225 169 426 1024
2020-10-22 21:44:44 GMT 50.086212 -0.034332 32,125 169 424 1088
2020-10-22 21:44:41 GMT 50.090790 -0.035633 32,050 169 421 1344
2020-10-22 21:44:38 GMT 50.098030 -0.037784 32,025 169 423 1152
2020-10-22 21:44:35 GMT 50.098030 -0.037784 32,000 169 423 1216
2020-10-22 21:44:32 GMT 50.103607 -0.039464 31,925 169 422 1280
2020-10-22 21:44:29 GMT 50.109528 -0.041199 31,875 169 422 1344
2020-10-22 21:44:26 GMT 50.121490 -0.044762 31,725 169 421 1600
2020-10-22 21:44:23 GMT 50.121490 -0.044762 31,675 169 420 1600
2020-10-22 21:44:20 GMT 50.126816 -0.046331 31,550 169 420 1664
2020-10-22 21:44:16 GMT 50.134293 -0.048548 31,550 169 420 1664
2020-10-22 21:44:13 GMT 50.145767 -0.052041 31,375 169 420 1600
2020-10-22 21:44:06 GMT 50.152542 -0.054041 31,250 168 416 1600
2020-10-22 21:44:03 GMT 50.159546 -0.056160 31,150 168 418 1408
2020-10-22 21:44:00 GMT 50.164459 -0.057678 31,125 168 418 1408
2020-10-22 21:43:57 GMT 50.176849 -0.061509 30,975 168 418 1408
2020-10-22 21:43:54 GMT 50.176849 -0.061509 30,975 168 418 1472
2020-10-22 21:43:51 GMT 50.183777 -0.063691 30,875 168 417 1536
2020-10-22 21:43:48 GMT 50.187363 -0.064804 30,825 168 417 1600
2020-10-22 21:43:45 GMT 50.193924 -0.066930 30,575 168 415 1600
2020-10-22 21:43:42 GMT 50.198769 -0.068442 30,675 168 416 1600
2020-10-22 21:43:39 GMT 50.204636 -0.070399 30,600 168 415 1600
2020-10-22 21:43:36 GMT 50.215897 -0.074158 30,325 167 415 1536
2020-10-22 21:43:33 GMT 50.215897 -0.074158 30,400 167 415 1536
2020-10-22 21:43:30 GMT 50.221664 -0.076109 30,350 167 414 1536
2020-10-22 21:43:27 GMT 50.226608 -0.077844 30,300 167 414 1600
2020-10-22 21:43:24 GMT 50.232285 -0.079799 29,000 164 416 0
2020-10-22 21:43:21 GMT 50.237823 -0.081804 30,125 167 414 1728
2020-10-22 21:43:18 GMT 50.243408 -0.083843 30,075 166 414 1728
2020-10-22 21:43:15 GMT 50.254578 -0.087963 29,900 166 413 1728
2020-10-22 21:43:12 GMT 50.254578 -0.087963 29,875 166 413 1792
2020-10-22 21:43:09 GMT 50.261993 -0.090782 29,800 166 414 1856
2020-10-22 21:43:06 GMT 50.265430 -0.092122 29,625 165 413 2240
2020-10-22 21:43:03 GMT 50.271065 -0.094275 29,550 165 413 2240
2020-10-22 21:43:00 GMT 50.276459 -0.096419 29,475 165 415 1856
2020-10-22 21:42:57 GMT 50.282318 -0.098805 29,200 165 415 2176
2020-10-22 21:42:54 GMT 50.288086 -0.101118 29,175 165 415 1984
2020-10-22 21:42:51 GMT 50.294266 -0.103720 29,125 164 416 768
2020-10-22 21:42:48 GMT 50.301132 -0.106611 29,050 164 416 1344
2020-10-22 21:42:44 GMT 50.307747 -0.109418 29,000 164 417 128
2020-10-22 21:42:41 GMT 50.313660 -0.111942 29,000 164 416 0
2020-10-22 21:42:38 GMT 50.317570 -0.113649 29,000 164 416 -64
2020-10-22 21:42:35 GMT 50.324738 -0.116767 29,000 164 417 -64
2020-10-22 21:42:32 GMT 50.328369 -0.118400 29,000 164 417 0
2020-10-22 21:42:29 GMT 50.334419 -0.120998 29,000 164 417 0
2020-10-22 21:42:26 GMT 50.339680 -0.123299 29,025 164 418 0
2020-10-22 21:42:23 GMT 50.350662 -0.128150 29,000 164 418 576
2020-10-22 21:42:20 GMT 50.350662 -0.128150 28,975 164 418 384
2020-10-22 21:42:17 GMT 50.357300 -0.131041 28,950 164 418 576
2020-10-22 21:42:14 GMT 50.362152 -0.133209 28,900 164 418 832
2020-10-22 21:42:11 GMT 50.369659 -0.136513 28,900 164 418 960
2020-10-22 21:42:08 GMT 50.373245 -0.138071 28,875 164 418 1088
2020-10-22 21:42:05 GMT 50.379639 -0.140871 28,775 164 417 1088
2020-10-22 21:42:02 GMT 50.384045 -0.142748 25,925 164 416 1088
2020-10-22 21:41:59 GMT 50.391907 -0.146219 28,650 164 415 1088
2020-10-22 21:41:56 GMT 50.395935 -0.148026 28,625 164 415 1152
2020-10-22 21:41:53 GMT 50.400650 -0.150050 28,575 164 414 1152
2020-10-22 21:41:50 GMT 50.406528 -0.152621 28,500 164 414 1152
2020-10-22 21:41:47 GMT 50.412117 -0.155071 28,425 164 412 1216
2020-10-22 21:41:44 GMT 50.419750 -0.158411 28,350 164 409 1408
2020-10-22 21:41:41 GMT 50.423172 -0.159952 28,325 164 410 1344
2020-10-22 21:41:38 GMT 50.429016 -0.162494 28,250 164 409 1344
2020-10-22 21:41:35 GMT 50.435486 -0.165301 28,200 164 408 1408
2020-10-22 21:41:32 GMT 50.439651 -0.167108 28,125 164 407 1536
2020-10-22 21:41:29 GMT 50.445263 -0.169546 28,025 164 405 1792
2020-10-22 21:41:26 GMT 50.450802 -0.171995 27,925 164 405 1792
2020-10-22 21:41:23 GMT 50.462585 -0.177082 27,750 164 404 1792
2020-10-22 21:41:20 GMT 50.462585 -0.177082 27,725 164 404 1792
2020-10-22 21:41:17 GMT 50.465324 -0.178305 27,675 164 403 1728
2020-10-22 21:41:14 GMT 50.471889 -0.181200 27,575 164 402 1728
2020-10-22 21:41:11 GMT 50.477661 -0.183724 27,500 164 402 1728
2020-10-22 21:41:08 GMT 50.482773 -0.185973 26,900 164 401 1792
2020-10-22 21:41:05 GMT 50.494282 -0.190925 27,275 164 400 1856
2020-10-22 21:41:02 GMT 50.494282 -0.190925 27,200 164 399 1920
2020-10-22 21:40:59 GMT 50.498146 -0.192632 27,100 164 399 1984
2020-10-22 21:40:56 GMT 50.505341 -0.195802 27,000 164 398 2048
2020-10-22 21:40:53 GMT 50.508224 -0.197031 26,950 164 398 2048
2020-10-22 21:40:50 GMT 50.514812 -0.199907 26,800 164 398 2112
2020-10-22 21:40:47 GMT 50.527287 -0.205400 26,625 164 397 2112
2020-10-22 21:40:44 GMT 50.527287 -0.205400 26,575 164 397 2048
2020-10-22 21:40:41 GMT 50.532269 -0.207553 26,525 164 397 2048
2020-10-22 21:40:38 GMT 50.535992 -0.209186 26,400 164 396 1984
2020-10-22 21:40:35 GMT 50.541550 -0.211631 25,700 164 390 2240
2020-10-22 21:40:32 GMT 50.546280 -0.213714 26,250 164 395 1984
2020-10-22 21:40:29 GMT 50.551495 -0.216015 26,050 164 394 2048
2020-10-22 21:40:23 GMT 50.561970 -0.220692 25,925 164 394 2048
2020-10-22 21:40:20 GMT 50.568695 -0.223702 25,775 164 392 2112
2020-10-22 21:40:17 GMT 50.573002 -0.225591 25,700 164 392 2112
2020-10-22 21:40:14 GMT 50.578449 -0.228041 25,650 164 391 2176
2020-10-22 21:40:11 GMT 50.583160 -0.230135 25,525 164 391 2176
2020-10-22 21:40:08 GMT 50.589294 -0.232866 25,350 164 390 2240
2020-10-22 21:40:05 GMT 50.594181 -0.235093 25,225 164 389 2368
2020-10-22 21:40:02 GMT 50.599117 -0.237245 25,075 164 389 2368
2020-10-22 21:39:59 GMT 50.604401 -0.239603 25,025 164 389 2368
2020-10-22 21:39:56 GMT 50.609360 -0.241848 24,950 164 389 2432
2020-10-22 21:39:53 GMT 50.614243 -0.244012 24,725 164 389 2496
2020-10-22 21:39:50 GMT 50.620998 -0.247044 24,625 164 389 2560
2020-10-22 21:39:47 GMT 50.626118 -0.249345 24,550 164 389 2560
2020-10-22 21:39:44 GMT 50.629715 -0.250951 24,375 163 388 2688
2020-10-22 21:39:41 GMT 50.634869 -0.253279 24,300 163 388 2752
2020-10-22 21:39:38 GMT 50.646057 -0.258323 24,075 164 389 2816
2020-10-22 21:39:35 GMT 50.646057 -0.258323 23,900 164 388 2688
2020-10-22 21:39:32 GMT 50.651825 -0.260853 23,825 164 388 2560
2020-10-22 21:39:29 GMT 50.656952 -0.263166 23,675 164 387 2304
2020-10-22 21:39:26 GMT 50.663918 -0.266270 23,525 164 387 2368
2020-10-22 21:39:23 GMT 50.667362 -0.267829 23,375 164 384 2368
2020-10-22 21:39:20 GMT 50.671326 -0.269526 23,350 164 386 2240
2020-10-22 21:39:17 GMT 50.676910 -0.272060 23,300 164 385 2240
2020-10-22 21:39:14 GMT 50.687759 -0.276885 23,050 164 383 2368
2020-10-22 21:39:11 GMT 50.687759 -0.276885 22,925 164 383 2496
2020-10-22 21:39:08 GMT 50.691925 -0.278741 22,800 164 382 2880
2020-10-22 21:39:05 GMT 50.698242 -0.281562 22,525 164 382 3008
2020-10-22 21:39:02 GMT 50.701538 -0.283046 22,600 164 382 3264
2020-10-22 21:38:59 GMT 50.707211 -0.285568 22,200 163 383 3392
2020-10-22 21:38:56 GMT 50.713623 -0.288465 22,225 163 383 3456
2020-10-22 21:38:53 GMT 50.718384 -0.290618 20,850 164 382 2688
2020-10-22 21:38:50 GMT 50.723969 -0.293142 21,900 164 384 3072
2020-10-22 21:38:47 GMT 50.727509 -0.294724 21,750 164 384 3008
2020-10-22 21:38:44 GMT 50.733673 -0.297447 21,625 163 383 3008
2020-10-22 21:38:41 GMT 50.738571 -0.299674 21,475 163 383 2880
2020-10-22 21:38:38 GMT 50.743893 -0.302124 21,325 163 383 2944
2020-10-22 21:38:35 GMT 50.749146 -0.304499 21,150 163 383 2816
2020-10-22 21:38:32 GMT 50.753391 -0.306396 21,050 163 383 2816
2020-10-22 21:38:29 GMT 50.758327 -0.308609 20,825 164 382 2688
2020-10-22 21:38:26 GMT 50.763351 -0.310898 20,750 164 382 2624
2020-10-22 21:38:23 GMT 50.768986 -0.313416 20,550 163 380 2496
2020-10-22 21:38:20 GMT 50.773315 -0.315412 20,500 164 380 2496
2020-10-22 21:38:17 GMT 50.778622 -0.317764 20,425 164 379 2496
2020-10-22 21:38:14 GMT 50.783882 -0.320129 20,250 164 378 2496
2020-10-22 21:38:11 GMT 50.793613 -0.324478 20,100 164 377 2496
2020-10-22 21:38:08 GMT 50.801201 -0.327911 20,025 164 377 2496
2020-10-22 21:38:05 GMT 50.801201 -0.327911 19,875 164 375 2496
2020-10-22 21:38:02 GMT 50.803894 -0.329144 19,750 164 373 2560
2020-10-22 21:37:59 GMT 50.808151 -0.331000 19,675 164 373 2624
2020-10-22 21:37:56 GMT 50.819588 -0.336075 19,500 164 372 2752
2020-10-22 21:37:53 GMT 50.819588 -0.336075 19,300 164 371 2880
2020-10-22 21:37:50 GMT 50.824383 -0.338211 19,225 164 371 2880
2020-10-22 21:37:47 GMT 50.829269 -0.340424 19,125 164 371 2880
2020-10-22 21:37:44 GMT 50.833054 -0.342061 18,975 164 370 2752
2020-10-22 21:37:41 GMT 50.843994 -0.346960 18,700 164 369 2880
2020-10-22 21:37:38 GMT 50.843994 -0.346960 18,650 164 368 2944
2020-10-22 21:37:35 GMT 50.849709 -0.349503 18,375 164 367 3200
2020-10-22 21:37:32 GMT 50.854221 -0.351562 18,325 164 368 3328
2020-10-22 21:37:29 GMT 50.858784 -0.353622 18,250 164 367 3456
2020-10-22 21:37:26 GMT 50.862808 -0.355423 17,950 164 368 3584
2020-10-22 21:37:23 GMT 50.868748 -0.358047 17,850 164 367 3520
2020-10-22 21:37:20 GMT 50.873402 -0.360184 17,775 164 368 3456
2020-10-22 21:37:17 GMT 50.877361 -0.361938 17,525 164 369 2880
2020-10-22 21:37:14 GMT 50.888111 -0.366745 17,275 164 369 2240
2020-10-22 21:37:11 GMT 50.888111 -0.366745 17,225 164 369 1920
2020-10-22 21:37:08 GMT 50.893326 -0.369110 17,150 164 369 1536
2020-10-22 21:37:05 GMT 50.896957 -0.370714 17,075 164 369 896
2020-10-22 21:37:02 GMT 50.902542 -0.373230 17,050 164 368 576
2020-10-22 21:36:58 GMT 50.913204 -0.378113 17,000 163 367 128
2020-10-22 21:36:55 GMT 50.918884 -0.380707 17,000 163 368 192
2020-10-22 21:36:52 GMT 50.918884 -0.380707 17,000 163 368 192
2020-10-22 21:36:49 GMT 50.923679 -0.382996 17,000 163 368 256
2020-10-22 21:36:46 GMT 50.928986 -0.385513 16,975 163 368 448
2020-10-22 21:36:43 GMT 50.934666 -0.388184 16,925 163 367 640
2020-10-22 21:36:40 GMT 50.938717 -0.390091 16,925 163 367 832
2020-10-22 21:36:37 GMT 50.942551 -0.391945 16,850 163 366 1088
2020-10-22 21:36:34 GMT 50.948864 -0.394897 16,800 163 365 1088
2020-10-22 21:36:31 GMT 50.952896 -0.396844 16,750 163 365 1088
2020-10-22 21:36:28 GMT 50.958527 -0.399516 16,675 163 366 1024
2020-10-22 21:36:25 GMT 50.962051 -0.401224 16,650 163 366 1088
2020-10-22 21:36:22 GMT 50.967346 -0.403748 16,575 163 367 1088
2020-10-22 21:36:19 GMT 50.974045 -0.406940 16,475 163 367 1152
2020-10-22 21:36:16 GMT 50.978302 -0.408944 16,450 163 367 1152
2020-10-22 21:36:13 GMT 50.982422 -0.410874 16,350 163 368 1216
2020-10-22 21:36:10 GMT 50.987877 -0.413437 16,325 163 367 1344
2020-10-22 21:36:07 GMT 50.992020 -0.415421 16,300 163 366 1408
2020-10-22 21:36:04 GMT 50.996861 -0.417709 16,225 163 366 1472
2020-10-22 21:36:01 GMT 51.002197 -0.420227 16,075 163 361 1792
2020-10-22 21:35:58 GMT 51.006496 -0.422211 16,025 163 360 1920
2020-10-22 21:35:55 GMT 51.013092 -0.425349 15,950 163 358 2112
2020-10-22 21:35:52 GMT 51.017212 -0.427279 15,775 163 355 2624
2020-10-22 21:35:49 GMT 51.020279 -0.428764 15,200 163 354 2688
2020-10-22 21:35:46 GMT 51.031170 -0.433884 15,450 163 353 2816
2020-10-22 21:35:43 GMT 51.031170 -0.433884 15,325 163 352 2944
2020-10-22 21:35:40 GMT 51.035110 -0.435742 15,250 163 351 3072
2020-10-22 21:35:37 GMT 51.039597 -0.437894 15,125 163 351 3264
2020-10-22 21:35:34 GMT 51.043762 -0.439824 15,000 163 350 3392
2020-10-22 21:35:31 GMT 51.048981 -0.442348 14,600 163 350 3712
2020-10-22 21:35:28 GMT 51.053699 -0.444565 14,550 163 350 3712
2020-10-22 21:35:25 GMT 51.058868 -0.447025 14,325 163 350 3584
2020-10-22 21:35:22 GMT 51.063309 -0.449178 14,175 163 351 3520
2020-10-22 21:35:19 GMT 51.067245 -0.451033 13,925 163 351 3520
2020-10-22 21:35:16 GMT 51.074020 -0.454300 13,775 163 351 3520
2020-10-22 21:35:13 GMT 51.076370 -0.455399 13,725 163 351 3520
2020-10-22 21:35:10 GMT 51.081444 -0.457916 13,475 163 351 3776
2020-10-22 21:35:07 GMT 51.086563 -0.460387 13,175 163 351 4288
2020-10-22 21:35:04 GMT 51.090801 -0.462418 13,075 163 351 4544
2020-10-22 21:35:01 GMT 51.095993 -0.464915 12,900 163 352 4736
2020-10-22 21:34:58 GMT 51.100204 -0.466919 12,725 163 353 4864
2020-10-22 21:34:55 GMT 51.110584 -0.471954 11,950 163 358 2944
2020-10-22 21:34:52 GMT 51.110584 -0.471954 12,100 163 358 3776
2020-10-22 21:34:49 GMT 51.115677 -0.474416 12,000 163 358 3200
2020-10-22 21:34:46 GMT 51.119019 -0.475975 11,825 163 357 2304
2020-10-22 21:34:43 GMT 51.124413 -0.478592 11,750 163 356 1920
2020-10-22 21:34:40 GMT 51.129066 -0.480804 11,650 163 353 1536
2020-10-22 21:34:37 GMT 51.133770 -0.483017 11,550 163 347 1408
2020-10-22 21:34:34 GMT 51.137741 -0.484957 11,525 163 345 1344
2020-10-22 21:34:31 GMT 51.142365 -0.487184 11,475 163 343 1344
2020-10-22 21:34:28 GMT 51.146896 -0.489349 11,425 163 341 1344
2020-10-22 21:34:25 GMT 51.152203 -0.491867 11,250 163 335 1344
2020-10-22 21:34:22 GMT 51.155960 -0.493642 11,250 163 333 1344
2020-10-22 21:34:19 GMT 51.160538 -0.495869 10,850 163 329 1344
2020-10-22 21:34:16 GMT 51.165161 -0.498096 11,100 163 326 1344
2020-10-22 21:34:13 GMT 51.168495 -0.499649 11,050 163 324 1280
2020-10-22 21:34:10 GMT 51.173618 -0.502090 11,025 163 322 1280
2020-10-22 21:34:07 GMT 51.177155 -0.503812 10,925 163 317 1216
2020-10-22 21:34:04 GMT 51.182232 -0.506210 10,850 163 314 1152
2020-10-22 21:34:01 GMT 51.185989 -0.508043 10,775 163 310 1152
2020-10-22 21:33:58 GMT 51.190109 -0.509973 10,750 163 307 1088
2020-10-22 21:33:55 GMT 51.194893 -0.512238 10,650 163 305 1088
2020-10-22 21:33:52 GMT 51.198292 -0.513916 10,675 163 303 1088
2020-10-22 21:33:49 GMT 51.203110 -0.516135 10,575 163 297 1024
2020-10-22 21:33:46 GMT 51.206390 -0.517731 10,525 163 294 1024
2020-10-22 21:33:43 GMT 51.213684 -0.521182 10,425 163 287 960
2020-10-22 21:33:40 GMT 51.213684 -0.521182 10,425 163 288 1024
2020-10-22 21:33:37 GMT 51.217468 -0.523071 10,400 163 286 960
2020-10-22 21:33:34 GMT 51.221100 -0.524750 10,350 163 284 1024
2020-10-22 21:33:31 GMT 51.225571 -0.526962 10,250 163 279 1856
2020-10-22 21:33:28 GMT 51.229294 -0.528754 10,150 163 278 2176
2020-10-22 21:33:25 GMT 51.232819 -0.530461 9,975 163 277 2368
2020-10-22 21:33:22 GMT 51.236664 -0.532243 9,925 163 277 2432
2020-10-22 21:33:19 GMT 51.240376 -0.534058 9,700 163 276 2496
2020-10-22 21:33:16 GMT 51.244099 -0.535889 9,675 163 276 2496
2020-10-22 21:33:13 GMT 51.248615 -0.538025 9,450 163 277 2368
2020-10-22 21:33:10 GMT 51.251034 -0.539246 9,450 163 277 2368
2020-10-22 21:33:07 GMT 51.258717 -0.542908 9,275 163 277 2240
2020-10-22 21:33:04 GMT 51.258717 -0.542908 9,200 162 276 2176
2020-10-22 21:33:01 GMT 51.265549 -0.546273 9,050 163 275 2240
2020-10-22 21:32:58 GMT 51.265549 -0.546273 9,000 163 274 2240
2020-10-22 21:32:55 GMT 51.269669 -0.548203 8,900 163 274 2368
2020-10-22 21:32:52 GMT 51.274311 -0.550461 8,700 163 274 2496
2020-10-22 21:32:49 GMT 51.276718 -0.551618 8,650 163 274 2560
2020-10-22 21:32:46 GMT 51.279850 -0.553131 8,575 163 274 2560
2020-10-22 21:32:43 GMT 51.285187 -0.555700 8,300 163 274 2560
2020-10-22 21:32:40 GMT 51.287533 -0.556870 8,250 163 274 2496
2020-10-22 21:32:37 GMT 51.292328 -0.559158 8,125 163 272 2432
2020-10-22 21:32:34 GMT 51.295120 -0.560451 7,975 163 273 2368
2020-10-22 21:32:31 GMT 51.299122 -0.562439 7,925 163 273 2368
2020-10-22 21:32:28 GMT 51.302288 -0.563965 7,600 163 272 2432
2020-10-22 21:32:25 GMT 51.306107 -0.565796 7,575 163 272 2432
2020-10-22 21:32:22 GMT 51.309223 -0.567322 7,400 163 271 2496
2020-10-22 21:32:19 GMT 51.313229 -0.569229 7,400 163 271 2432
2020-10-22 21:32:16 GMT 51.317467 -0.571289 7,325 163 271 2432
2020-10-22 21:32:13 GMT 51.319931 -0.572433 7,125 163 271 2368
2020-10-22 21:32:10 GMT 51.323959 -0.574333 7,025 163 270 2432
2020-10-22 21:32:07 GMT 51.327576 -0.576040 6,875 163 269 2432
2020-10-22 21:32:04 GMT 51.330505 -0.577450 6,700 163 269 2432
2020-10-22 21:32:01 GMT 51.334969 -0.579529 6,675 163 268 2432
2020-10-22 21:31:58 GMT 51.338039 -0.580978 6,625 163 268 2432
2020-10-22 21:31:55 GMT 51.345444 -0.584412 6,350 163 268 2368
2020-10-22 21:31:52 GMT 51.345444 -0.584412 6,300 163 268 2368
2020-10-22 21:31:49 GMT 51.349091 -0.586135 6,150 163 267 2368
2020-10-22 21:31:46 GMT 51.352703 -0.587845 5,875 163 266 2368
2020-10-22 21:31:43 GMT 51.357285 -0.589996 5,800 164 265 2304
2020-10-22 21:31:40 GMT 51.359177 -0.590897 5,825 164 264 2240
2020-10-22 21:31:37 GMT 51.362549 -0.592371 5,750 164 264 2176
2020-10-22 21:31:34 GMT 51.367676 -0.594746 5,600 164 263 2048
2020-10-22 21:31:31 GMT 51.369781 -0.595711 5,550 163 262 1920
2020-10-22 21:31:28 GMT 51.376678 -0.599060 5,425 162 260 1600
2020-10-22 21:31:25 GMT 51.376678 -0.599060 5,325 161 258 1280
2020-10-22 21:31:22 GMT 51.380081 -0.600833 5,300 160 256 1152
2020-10-22 21:31:19 GMT 51.383614 -0.602798 5,250 160 254 960
2020-10-22 21:31:16 GMT 51.387154 -0.604858 4,750 160 248 960
2020-10-22 21:31:13 GMT 51.389992 -0.606461 5,100 160 246 960
2020-10-22 21:31:10 GMT 51.394367 -0.608978 5,100 160 242 960
2020-10-22 21:31:07 GMT 51.396370 -0.610046 5,050 161 238 896
2020-10-22 21:31:04 GMT 51.400497 -0.612265 5,000 161 234 960
2020-10-22 21:31:01 GMT 51.402695 -0.613379 4,900 165 221 1728
2020-10-22 21:30:58 GMT 51.405869 -0.615005 4,850 164 223 1216
2020-10-22 21:30:55 GMT 51.409012 -0.616422 4,875 164 225 1152
2020-10-22 21:30:52 GMT 51.414276 -0.618501 4,725 167 219 2048
2020-10-22 21:30:49 GMT 51.418716 -0.619391 4,625 172 218 2176
2020-10-22 21:30:46 GMT 51.418716 -0.619391 4,525 197 211 2048
2020-10-22 21:30:43 GMT 51.421696 -0.619278 4,475 183 215 2048
2020-10-22 21:30:40 GMT 51.423569 -0.618872 4,175 194 211 2048
2020-10-22 21:30:36 GMT 51.428444 -0.616379 4,175 209 207 1920
2020-10-22 21:30:33 GMT 51.430023 -0.615012 4,150 218 204 1856
2020-10-22 21:30:30 GMT 51.432129 -0.612636 4,075 218 204 1920
2020-10-22 21:30:27 GMT 51.434143 -0.609593 3,925 229 201 2048
2020-10-22 21:30:24 GMT 51.436031 -0.605774 3,775 238 200 2304
2020-10-22 21:30:21 GMT 51.437851 -0.601501 3,650 240 200 2304
2020-10-22 21:30:18 GMT 51.439316 -0.597493 3,575 240 200 2304
2020-10-22 21:30:15 GMT 51.440224 -0.595016 3,525 240 200 2304
2020-10-22 21:30:12 GMT 51.443340 -0.586472 3,250 240 200 2304
2020-10-22 21:30:09 GMT 51.444599 -0.582962 3,175 241 199 2240
2020-10-22 21:30:06 GMT 51.444599 -0.582962 3,150 240 199 2304
2020-10-22 21:30:03 GMT 51.445953 -0.579232 2,975 241 199 2240
2020-10-22 21:30:00 GMT 51.447693 -0.574258 2,875 241 199 2240
2020-10-22 21:29:57 GMT 51.448555 -0.571823 2,750 241 199 2240
2020-10-22 21:29:54 GMT 51.450092 -0.567398 2,675 242 198 2240
2020-10-22 21:29:51 GMT 51.451069 -0.564575 2,600 242 198 2176
2020-10-22 21:29:48 GMT 51.452419 -0.560608 2,475 242 198 2176
2020-10-22 21:29:45 GMT 51.454144 -0.555725 2,375 240 197 2048
2020-10-22 21:29:42 GMT 51.455750 -0.551543 1,925 238 196 1856
2020-10-22 21:29:39 GMT 51.457077 -0.548277 2,200 236 195 1792
2020-10-22 21:29:36 GMT 51.458405 -0.545234 2,075 235 194 1600
2020-10-22 21:29:33 GMT 51.460052 -0.541458 2,000 236 192 1344
2020-10-22 21:29:30 GMT 51.462662 -0.534363 1,925 246 185 576
2020-10-22 21:29:27 GMT 51.462662 -0.534363 1,900 251 183 448
2020-10-22 21:29:24 GMT 51.463406 -0.531387 1,900 256 179 448
2020-10-22 21:29:21 GMT 51.464104 -0.527420 1,875 261 177 576
2020-10-22 21:29:18 GMT 51.464493 -0.523038 1,850 266 173 704
2020-10-22 21:29:15 GMT 51.464584 -0.520143 1,825 269 170 768
2020-10-22 21:29:12 GMT 51.464710 -0.511475 1,750 270 163 960
2020-10-22 21:29:09 GMT 51.464710 -0.511475 1,725 269 161 1024
2020-10-22 21:29:06 GMT 51.464722 -0.507895 1,675 269 158 1088
2020-10-22 21:29:03 GMT 51.464756 -0.504074 1,625 269 156 1344
2020-10-22 21:29:00 GMT 51.464813 -0.500472 1,450 269 155 2624
2020-10-22 21:28:57 GMT 51.464848 -0.496979 1,425 270 156 2752
2020-10-22 21:28:54 GMT 51.464859 -0.493939 1,275 270 156 3008
2020-10-22 21:28:51 GMT 51.464848 -0.490799 1,175 270 157 3072
2020-10-22 21:28:48 GMT 51.464859 -0.487704 1,075 271 158 3072
2020-10-22 21:28:45 GMT 51.464859 -0.480058 675 270 161 3008
2020-10-22 21:28:42 GMT 51.464859 -0.480058 600 270 162 2880
2020-10-22 21:28:39 GMT 51.464859 -0.476421 450 270 164 2624
2020-10-22 21:28:36 GMT 51.464859 -0.472783 350 270 165 2496
2020-10-22 21:28:31 GMT 51.464859 -0.467216 175 270 164 1088
2020-10-22 21:28:26 GMT 51.464893 -0.460815 175 270 147 128
2020-10-22 21:28:17 GMT 51.464893 -0.451965 175 270 129 64
2020-10-22 21:28:11 GMT 51.464943 -0.446930 200 270 96 64
2020-10-22 21:28:05 GMT 51.464928 -0.443332 0 270 70
2020-10-22 21:28:00 GMT 51.464931 -0.441208 0 270 46
2020-10-22 21:27:54 GMT 51.464928 -0.439713 0 267 14
2020-10-22 21:27:51 GMT 51.464943 -0.439339 0 267 0
2020-10-22 21:27:41 GMT 51.464951 -0.439305 0 267 0
2020-10-22 21:27:38 GMT 51.464943 -0.439301 0 267 0
2020-10-22 21:27:29 GMT 51.464951 -0.439305 0 267 3
2020-10-22 21:27:24 GMT 51.464951 -0.439156 0 264 7
2020-10-22 21:27:19 GMT 51.464939 -0.438934 0 253 7
2020-10-22 21:27:15 GMT 51.464951 -0.438711 0 230 7
2020-10-22 21:27:09 GMT 51.465023 -0.438461 0 205 8
2020-10-22 21:27:04 GMT 51.465176 -0.438309 0 185 9
2020-10-22 21:27:00 GMT 51.465324 -0.438290 0 180 10
2020-10-22 21:26:57 GMT 51.465511 -0.438284 0 180 11
2020-10-22 21:26:54 GMT 51.465614 -0.438284 0 180 11
2020-10-22 21:26:49 GMT 51.465839 -0.438271 0 180 10
2020-10-22 21:26:43 GMT 51.466095 -0.438271 0 177 8
2020-10-22 21:26:39 GMT 51.466244 -0.438251 0 168 8
2020-10-22 21:26:33 GMT 51.466427 -0.438247 0 140 8
2020-10-22 21:26:28 GMT 51.466599 -0.438395 0 109 8
2020-10-22 21:26:23 GMT 51.466663 -0.438595 0 92 7
2020-10-22 21:26:19 GMT 51.466686 -0.438824 0 90 9
2020-10-22 21:26:13 GMT 51.466679 -0.439156 0 90 9
2020-10-22 21:26:10 GMT 51.466679 -0.439342 0 90 10
2020-10-22 21:26:07 GMT 51.466675 -0.439587 0 90 10
2020-10-22 21:26:03 GMT 51.466675 -0.439796 0 90 9
2020-10-22 21:25:57 GMT 51.466663 -0.440197 0 90 8
2020-10-22 21:25:53 GMT 51.466663 -0.440407 0 90 8
2020-10-22 21:25:48 GMT 51.466663 -0.440712 0 90 10
2020-10-22 21:25:45 GMT 51.466667 -0.441012 0 90 9
2020-10-22 21:25:41 GMT 51.466667 -0.441235 0 90 9
2020-10-22 21:25:37 GMT 51.466663 -0.441456 0 90 8
2020-10-22 21:25:31 GMT 51.466663 -0.441761 0 90 7
2020-10-22 21:25:27 GMT 51.466663 -0.441990 0 90 8
2020-10-22 21:25:21 GMT 51.466667 -0.442330 0 90 9
2020-10-22 21:25:17 GMT 51.466663 -0.442600 0 90 11
2020-10-22 21:25:11 GMT 51.466663 -0.443058 0 90 11
2020-10-22 21:25:07 GMT 51.466656 -0.443425 0 90 12
2020-10-22 21:25:01 GMT 51.466656 -0.443907 0 90 11
2020-10-22 21:24:58 GMT 51.466652 -0.444813 0 90 13
2020-10-22 21:24:51 GMT 51.466652 -0.444813 0 90 13
2020-10-22 21:24:47 GMT 51.466652 -0.445175 0 90 13
2020-10-22 21:24:41 GMT 51.466652 -0.445709 0 90 12
2020-10-22 21:24:38 GMT 51.466652 -0.445900 0 90 12
2020-10-22 21:24:31 GMT 51.466652 -0.446606 0 90 13
2020-10-22 21:24:26 GMT 51.466644 -0.447099 0 90 12
2020-10-22 21:24:18 GMT 51.466640 -0.447788 0 90 15
2020-10-22 21:24:15 GMT 51.466633 -0.448175 0 90 16
2020-10-22 21:24:11 GMT 51.466644 -0.448602 0 90 17
2020-10-22 21:24:07 GMT 51.466644 -0.449103 0 90 18
2020-10-22 21:24:00 GMT 51.466633 -0.450477 0 90 22
2020-10-22 21:23:53 GMT 51.466629 -0.451069 0 90 22
2020-10-22 21:23:50 GMT 51.466633 -0.451497 0 90 23
2020-10-22 21:23:47 GMT 51.466629 -0.451984 0 90 23
2020-10-22 21:23:41 GMT 51.466621 -0.453112 0 90 22
2020-10-22 21:23:38 GMT 51.466629 -0.453606 0 90 22
2020-10-22 21:23:31 GMT 51.466621 -0.454726 0 90 22
2020-10-22 21:23:28 GMT 51.466621 -0.455209 0 90 22
2020-10-22 21:23:21 GMT 51.466610 -0.456285 0 90 21
2020-10-22 21:23:17 GMT 51.466610 -0.456861 0 90 21
2020-10-22 21:23:10 GMT 51.466610 -0.457918 0 90 20
2020-10-22 21:23:06 GMT 51.466610 -0.458364 0 90 20
2020-10-22 21:23:00 GMT 51.466606 -0.459213 0 90 19
2020-10-22 21:22:56 GMT 51.466606 -0.459747 0 90 18
2020-10-22 21:22:50 GMT 51.466599 -0.460535 0 90 19
2020-10-22 21:22:46 GMT 51.466599 -0.461110 0 90 20
2020-10-22 21:22:40 GMT 51.466599 -0.461927 0 90 20
2020-10-22 21:22:37 GMT 51.466587 -0.462465 0 90 20
2020-10-22 21:22:30 GMT 51.466587 -0.463393 0 90 19
2020-10-22 21:22:26 GMT 51.466587 -0.463931 0 90 19
2020-10-22 21:22:20 GMT 51.466587 -0.464711 0 90 18
2020-10-22 21:22:17 GMT 51.466583 -0.465202 0 90 17
2020-10-22 21:22:10 GMT 51.466583 -0.466003 0 90 17
2020-10-22 21:22:07 GMT 51.466587 -0.466455 0 90 17
2020-10-22 21:22:00 GMT 51.466583 -0.467262 0 90 18
2020-10-22 21:21:54 GMT 51.466583 -0.467987 0 90 17
2020-10-22 21:21:50 GMT 51.466576 -0.468552 0 90 17
2020-10-22 21:21:46 GMT 51.466572 -0.468960 0 90 17
2020-10-22 21:21:40 GMT 51.466576 -0.470222 0 90 17
2020-10-22 21:21:36 GMT 51.466576 -0.470222 0 90 17
2020-10-22 21:21:28 GMT 51.466572 -0.471153 0 90 17
2020-10-22 21:21:25 GMT 51.466564 -0.471614 0 90 17
2020-10-22 21:21:19 GMT 51.466564 -0.472301 0 90 17
2020-10-22 21:21:14 GMT 51.466560 -0.472889 0 90 16
2020-10-22 21:21:09 GMT 51.466560 -0.473537 0 90 16
2020-10-22 21:21:05 GMT 51.466560 -0.473976 0 90 16
2020-10-22 21:20:59 GMT 51.466564 -0.474676 0 90 16
2020-10-22 21:20:55 GMT 51.466564 -0.475103 0 90 15
2020-10-22 21:20:48 GMT 51.466560 -0.475864 0 90 14
2020-10-22 21:20:45 GMT 51.466553 -0.476087 0 90 12
2020-10-22 21:20:40 GMT 51.466553 -0.476569 0 90 12
2020-10-22 21:20:35 GMT 51.466549 -0.476913 0 90 11
2020-10-22 21:20:30 GMT 51.466553 -0.477349 0 90 10
2020-10-22 21:20:25 GMT 51.466553 -0.477720 0 92 10
2020-10-22 21:20:19 GMT 51.466553 -0.478128 0 118 9
2020-10-22 21:20:15 GMT 51.466572 -0.478344 0 137 10
2020-10-22 21:20:08 GMT 51.466782 -0.478648 0 171 8
2020-10-22 21:20:05 GMT 51.466896 -0.478687 0 174 9
2020-10-22 21:20:00 GMT 51.467270 -0.478706 0 135 7
2020-10-22 21:19:54 GMT 51.467270 -0.478706 0 132 7
2020-10-22 21:19:50 GMT 51.467377 -0.478796 0 106 7
2020-10-22 21:19:47 GMT 51.467422 -0.478926 0 95 6
2020-10-22 21:19:44 GMT 51.467434 -0.479000 0 90 7
2020-10-22 21:19:38 GMT 51.467434 -0.479371 0 90 9
2020-10-22 21:19:34 GMT 51.467445 -0.479660 0 90 12
2020-10-22 21:19:30 GMT 51.467445 -0.480003 0 90 12
2020-10-22 21:19:24 GMT 51.467434 -0.480466 0 90 12
2020-10-22 21:19:20 GMT 51.467434 -0.480856 0 90 12
2020-10-22 21:19:17 GMT 51.467434 -0.481071 0 90 11
2020-10-22 21:19:14 GMT 51.467434 -0.481377 0 90 11
2020-10-22 21:19:10 GMT 51.467422 -0.481853 0 90 10
2020-10-22 21:19:03 GMT 51.467422 -0.482159 0 90 10
2020-10-22 21:19:00 GMT 51.467422 -0.482359 0 90 9
2020-10-22 21:18:54 GMT 51.467422 -0.482712 0 98 9
2020-10-22 21:18:49 GMT 51.467422 -0.483017 0 115 8
2020-10-22 21:18:45 GMT 51.467468 -0.483265 0 140 8
2020-10-22 21:18:39 GMT 51.467571 -0.483473 0 168 8
2020-10-22 21:18:35 GMT 51.467735 -0.483551 0 180 8
2020-10-22 21:18:27 GMT 51.468025 -0.483551 0 180 8
2020-10-22 21:18:24 GMT 51.468132 -0.483547 0 180 8
2020-10-22 21:18:20 GMT 51.468281 -0.483551 0 180 9
2020-10-22 21:18:16 GMT 51.468395 -0.483547 0 180 9
2020-10-22 21:18:13 GMT 51.468513 -0.483551 0 180 8
2020-10-22 21:18:07 GMT 51.468758 -0.483532 0 180 9
2020-10-22 21:18:01 GMT 51.468979 -0.483532 0 180 8
2020-10-22 21:17:56 GMT 51.469166 -0.483551 0 180 8
2020-10-22 21:17:52 GMT 51.469288 -0.483547 0 180 7
2020-10-22 21:17:46 GMT 51.469448 -0.483547 0 180 7
2020-10-22 21:17:40 GMT 51.469620 -0.483547 0 180 6
2020-10-22 21:17:36 GMT 51.469734 -0.483547 0 180 6
2020-10-22 21:17:33 GMT 51.469803 -0.483547 0 180 5
2020-10-22 21:17:26 GMT 51.469952 -0.483547 0 180 5
2020-10-22 21:17:18 GMT 51.470089 -0.483547 0 180 4
2020-10-22 21:17:15 GMT 51.470135 -0.483547 0 180 3
2020-10-22 21:17:12 GMT 51.470169 -0.483547 0 180 4
2020-10-22 21:17:03 GMT 51.470364 -0.483547 0 180 5
2020-10-22 21:16:55 GMT 51.470490 -0.483565 0 180 4
2020-10-22 21:16:52 GMT 51.470528 -0.483551 0 180 3
2020-10-22 21:16:42 GMT 51.470634 -0.483551 0 180 2
2020-10-22 21:16:31 GMT 51.470695 -0.483565 0 180 0
2020-10-22 21:16:25 GMT 51.470730 -0.483565 0 180 0
2020-10-22 21:16:15 GMT 51.470753 -0.483565 0 180 0
2020-10-22 21:16:12 GMT 51.470760 -0.483570 0 180 0
2020-10-22 21:16:02 GMT 51.470795 -0.483570 0 180 2
2020-10-22 21:15:52 GMT 51.470890 -0.483565 0 180 4
2020-10-22 21:15:44 GMT 51.471027 -0.483570 0 180 6
2020-10-22 21:15:38 GMT 51.471188 -0.483565 0 180 6
2020-10-22 21:15:32 GMT 51.471367 -0.483570 0 180 7
2020-10-22 21:15:24 GMT 51.471600 -0.483565 0 180 9
2020-10-22 21:15:14 GMT 51.472000 -0.483565 0 180 8
2020-10-22 21:15:08 GMT 51.472195 -0.483565 0 180 8
2020-10-22 21:15:04 GMT 51.472343 -0.483570 0 180 7
2020-10-22 21:15:01 GMT 51.472412 -0.483584 0 180 7
2020-10-22 21:14:51 GMT 51.472698 -0.483584 0 180 6
2020-10-22 21:14:41 GMT 51.472939 -0.483570 0 180 5
2020-10-22 21:14:31 GMT 51.473110 -0.483565 0 180 4
2020-10-22 21:14:01 GMT 51.473297 -0.483570 0 180 0
2020-10-22 21:13:41 GMT 51.473293 -0.483565 0 180 0
2020-10-22 21:13:36 GMT 51.473297 -0.483570 0 180 0
2020-10-22 21:13:06 GMT 51.473293 -0.483565 0 180 0
2020-10-22 21:12:46 GMT 51.473297 -0.483570 0 180 0
2020-10-22 21:12:41 GMT 51.473297 -0.483570 0 180 0
2020-10-22 21:12:26 GMT 51.473297 -0.483570 0 180 0
2020-10-22 21:12:11 GMT 51.473293 -0.483565 0 180 0
2020-10-22 21:11:56 GMT 51.473286 -0.483570 0 180 0
2020-10-22 21:11:51 GMT 51.473293 -0.483565 0 180 0
2020-10-22 21:11:46 GMT 51.473297 -0.483570 0 180 0
2020-10-22 21:11:26 GMT 51.473293 -0.483565 0 180 0
2020-10-22 21:11:16 GMT 51.473297 -0.483570 0 180 0
2020-10-22 21:11:06 GMT 51.473293 -0.483565 0 180 0
2020-10-22 21:10:51 GMT 51.473286 -0.483570 0 180 0
2020-10-22 21:10:36 GMT 51.473293 -0.483565 0 180 0
2020-10-22 21:10:26 GMT 51.473286 -0.483570 0 180 0
2020-10-22 21:10:11 GMT 51.473293 -0.483565 0 180 0
2020-10-22 21:10:08 GMT 51.473286 -0.483570 0 180 0
2020-10-22 21:09:59 GMT 51.473293 -0.483565 0 180 0
2020-10-22 21:09:54 GMT 51.473286 -0.483570 0 180 2
2020-10-22 21:09:37 GMT 51.473160 -0.483475 0 163 3
2020-10-22 21:09:25 GMT 51.473087 -0.483322 0 143 3
2020-10-22 21:09:16 GMT 51.473076 -0.483157 0 123 3
2020-10-22 21:09:07 GMT 51.473099 -0.482998 0 104 3
2020-10-22 21:08:57 GMT 51.473133 -0.482823 0 90 3
2020-10-22 21:08:46 GMT 51.473133 -0.482563 0 87 4
2020-10-22 21:08:37 GMT 51.473137 -0.482349 0 90 4
2020-10-22 21:08:25 GMT 51.473148 -0.482121 0 90 0
2020-10-22 21:08:15 GMT 51.473145 -0.482099 0 90 0
2020-10-22 21:07:55 GMT 51.473148 -0.482101 0 90 0
2020-10-22 21:07:40 GMT 51.473145 -0.482099 0 90 0
2020-10-22 21:07:24 GMT 51.473148 -0.482101 0 90 0

Making use of Plane Finder data

You are free to use the raw flight data, aircraft information and images provided in this report for your own purposes provided the data is correctly attributed to Plane Finder. We ask that you please credit Plane Finder and link to planefinder.net in close proximity to the content.

Optionally one of the following logos (no smaller then 150x24px) can be used and must link to planefinder.net

Embedding the Plane Finder map

You are welcome to embed the Plane Finder playback map on your website to offer visitors a more interactive experience. We suggest using the following HTML code:

<iframe src="//planefinder.net/data/report/BA83-G-YMMI-7700-squawk-2020-10-22/map" width="800" height="600" seamless="seamless"></iframe>

Where our data comes from

Plane Finder has a global network of data feeds and antenna radars that receive data broadcast directly from aircraft. The primary technologies used are ADS-B and MLAT. We also show feeds from the FAA and a FLARM glider feed.

Click here to find out more about the Plane Finder network.

How we collect our data